<?xml version="1.0" encoding="UTF-8" standalone="no" ?>
<gpx xmlns="http://www.topografix.com/GPX/1/1" xmlns:xsi="http://www.w3.org/2001/XMLSchema-instance" xsi:schemaLocation="http://www.topografix.com/GPX/1/1 http://www.topografix.com/GPX/1/1/gpx.xsd" version="1.1" creator="VisuGPX - https://www.visugpx.com">
  <metadata>
    <name>rando patachons du 22/02/2022</name>
  </metadata>
  <trk>
    <name><![CDATA[rando patachons du 22/02/2022]]></name>
    <extensions>
      <line xmlns="http://www.topografix.com/GPX/gpx_style/0/2">
        <color>00FF00</color>
        <width>4</width>
      </line>
    </extensions>
    <trkseg>
      <trkpt lat="45.3454" lon="4.74001">
        <ele>313.4</ele>
      </trkpt>
    </trkseg>
  </trk>
  <trk>
    <name><![CDATA[rando patachons du 22/02/2022_2]]></name>
    <trkseg>
      <trkpt lat="45.3464" lon="4.72831">
        <ele>324.1</ele>
        <time>2022-02-22T10:12:10Z</time>
      </trkpt>
      <trkpt lat="45.3464" lon="4.72836">
        <ele>324.1</ele>
        <time>2022-02-22T10:12:15Z</time>
      </trkpt>
      <trkpt lat="45.34641" lon="4.72861">
        <ele>326.99</ele>
        <time>2022-02-22T10:12:33Z</time>
      </trkpt>
      <trkpt lat="45.34637" lon="4.72869">
        <ele>328.43</ele>
        <time>2022-02-22T10:12:41Z</time>
      </trkpt>
      <trkpt lat="45.3463" lon="4.7288">
        <ele>330.83</ele>
        <time>2022-02-22T10:12:56Z</time>
      </trkpt>
      <trkpt lat="45.34616" lon="4.72896">
        <ele>332.27</ele>
        <time>2022-02-22T10:13:13Z</time>
      </trkpt>
      <trkpt lat="45.34602" lon="4.72913">
        <ele>333.71</ele>
        <time>2022-02-22T10:13:30Z</time>
      </trkpt>
      <trkpt lat="45.34587" lon="4.72931">
        <ele>333.71</ele>
        <time>2022-02-22T10:13:46Z</time>
      </trkpt>
      <trkpt lat="45.34574" lon="4.72946">
        <ele>333.71</ele>
        <time>2022-02-22T10:14:00Z</time>
      </trkpt>
      <trkpt lat="45.34564" lon="4.72957">
        <ele>334.2</ele>
        <time>2022-02-22T10:14:10Z</time>
      </trkpt>
      <trkpt lat="45.34559" lon="4.72961">
        <ele>334.68</ele>
        <time>2022-02-22T10:14:16Z</time>
      </trkpt>
      <trkpt lat="45.34549" lon="4.7297">
        <ele>335.64</ele>
        <time>2022-02-22T10:14:31Z</time>
      </trkpt>
      <trkpt lat="45.34547" lon="4.72973">
        <ele>335.64</ele>
        <time>2022-02-22T10:14:54Z</time>
      </trkpt>
      <trkpt lat="45.34546" lon="4.72974">
        <ele>335.64</ele>
        <time>2022-02-22T10:15:22Z</time>
      </trkpt>
      <trkpt lat="45.34544" lon="4.72976">
        <ele>336.12</ele>
        <time>2022-02-22T10:15:49Z</time>
      </trkpt>
      <trkpt lat="45.34543" lon="4.72977">
        <ele>335.16</ele>
        <time>2022-02-22T10:15:50Z</time>
      </trkpt>
      <trkpt lat="45.34529" lon="4.72992">
        <ele>336.6</ele>
        <time>2022-02-22T10:16:05Z</time>
      </trkpt>
      <trkpt lat="45.34527" lon="4.72994">
        <ele>336.6</ele>
        <time>2022-02-22T10:16:07Z</time>
      </trkpt>
      <trkpt lat="45.34514" lon="4.73013">
        <ele>337.08</ele>
        <time>2022-02-22T10:16:22Z</time>
      </trkpt>
      <trkpt lat="45.34499" lon="4.73034">
        <ele>338.52</ele>
        <time>2022-02-22T10:16:39Z</time>
      </trkpt>
      <trkpt lat="45.34497" lon="4.73032">
        <ele>338.04</ele>
        <time>2022-02-22T10:17:03Z</time>
      </trkpt>
      <trkpt lat="45.34495" lon="4.73036">
        <ele>338.04</ele>
        <time>2022-02-22T10:17:15Z</time>
      </trkpt>
      <trkpt lat="45.34481" lon="4.7306">
        <ele>338.52</ele>
        <time>2022-02-22T10:17:32Z</time>
      </trkpt>
      <trkpt lat="45.34465" lon="4.73082">
        <ele>339.48</ele>
        <time>2022-02-22T10:17:50Z</time>
      </trkpt>
      <trkpt lat="45.3445" lon="4.73097">
        <ele>338.04</ele>
        <time>2022-02-22T10:18:04Z</time>
      </trkpt>
      <trkpt lat="45.34437" lon="4.73111">
        <ele>338.04</ele>
        <time>2022-02-22T10:18:17Z</time>
      </trkpt>
      <trkpt lat="45.34431" lon="4.73118">
        <ele>337.56</ele>
        <time>2022-02-22T10:18:24Z</time>
      </trkpt>
      <trkpt lat="45.34424" lon="4.73137">
        <ele>337.56</ele>
        <time>2022-02-22T10:18:36Z</time>
      </trkpt>
      <trkpt lat="45.34407" lon="4.73164">
        <ele>335.64</ele>
        <time>2022-02-22T10:18:56Z</time>
      </trkpt>
      <trkpt lat="45.3439" lon="4.73186">
        <ele>334.68</ele>
        <time>2022-02-22T10:19:13Z</time>
      </trkpt>
      <trkpt lat="45.34374" lon="4.73206">
        <ele>333.71</ele>
        <time>2022-02-22T10:19:28Z</time>
      </trkpt>
      <trkpt lat="45.3436" lon="4.73219">
        <ele>333.23</ele>
        <time>2022-02-22T10:19:41Z</time>
      </trkpt>
      <trkpt lat="45.3434" lon="4.73223">
        <ele>333.23</ele>
        <time>2022-02-22T10:19:57Z</time>
      </trkpt>
      <trkpt lat="45.34314" lon="4.73233">
        <ele>332.75</ele>
        <time>2022-02-22T10:20:16Z</time>
      </trkpt>
      <trkpt lat="45.343" lon="4.73253">
        <ele>331.31</ele>
        <time>2022-02-22T10:20:32Z</time>
      </trkpt>
      <trkpt lat="45.34281" lon="4.73272">
        <ele>329.87</ele>
        <time>2022-02-22T10:20:48Z</time>
      </trkpt>
      <trkpt lat="45.34268" lon="4.73295">
        <ele>329.39</ele>
        <time>2022-02-22T10:21:05Z</time>
      </trkpt>
      <trkpt lat="45.34257" lon="4.73316">
        <ele>328.43</ele>
        <time>2022-02-22T10:21:20Z</time>
      </trkpt>
      <trkpt lat="45.34255" lon="4.73321">
        <ele>328.43</ele>
        <time>2022-02-22T10:21:24Z</time>
      </trkpt>
      <trkpt lat="45.3425" lon="4.73332">
        <ele>327.95</ele>
        <time>2022-02-22T10:21:31Z</time>
      </trkpt>
      <trkpt lat="45.34245" lon="4.7336">
        <ele>328.43</ele>
        <time>2022-02-22T10:21:46Z</time>
      </trkpt>
      <trkpt lat="45.34232" lon="4.73386">
        <ele>328.43</ele>
        <time>2022-02-22T10:22:03Z</time>
      </trkpt>
      <trkpt lat="45.34221" lon="4.73413">
        <ele>327.47</ele>
        <time>2022-02-22T10:22:19Z</time>
      </trkpt>
      <trkpt lat="45.34211" lon="4.73438">
        <ele>327.95</ele>
        <time>2022-02-22T10:22:35Z</time>
      </trkpt>
      <trkpt lat="45.342" lon="4.7346">
        <ele>326.99</ele>
        <time>2022-02-22T10:22:50Z</time>
      </trkpt>
      <trkpt lat="45.34189" lon="4.7348">
        <ele>326.5</ele>
        <time>2022-02-22T10:23:05Z</time>
      </trkpt>
      <trkpt lat="45.34172" lon="4.73505">
        <ele>326.02</ele>
        <time>2022-02-22T10:23:22Z</time>
      </trkpt>
      <trkpt lat="45.34157" lon="4.73525">
        <ele>324.58</ele>
        <time>2022-02-22T10:23:38Z</time>
      </trkpt>
      <trkpt lat="45.34154" lon="4.73527">
        <ele>323.62</ele>
        <time>2022-02-22T10:23:41Z</time>
      </trkpt>
      <trkpt lat="45.34146" lon="4.73535">
        <ele>323.14</ele>
        <time>2022-02-22T10:23:49Z</time>
      </trkpt>
      <trkpt lat="45.3414" lon="4.73542">
        <ele>322.18</ele>
        <time>2022-02-22T10:23:55Z</time>
      </trkpt>
      <trkpt lat="45.34123" lon="4.73547">
        <ele>318.81</ele>
        <time>2022-02-22T10:24:12Z</time>
      </trkpt>
      <trkpt lat="45.34107" lon="4.7355">
        <ele>315.45</ele>
        <time>2022-02-22T10:24:29Z</time>
      </trkpt>
      <trkpt lat="45.34093" lon="4.7355">
        <ele>312.57</ele>
        <time>2022-02-22T10:24:45Z</time>
      </trkpt>
      <trkpt lat="45.34075" lon="4.73563">
        <ele>311.12</ele>
        <time>2022-02-22T10:25:01Z</time>
      </trkpt>
      <trkpt lat="45.34074" lon="4.73581">
        <ele>311.12</ele>
        <time>2022-02-22T10:25:12Z</time>
      </trkpt>
      <trkpt lat="45.34074" lon="4.73592">
        <ele>311.6</ele>
        <time>2022-02-22T10:25:18Z</time>
      </trkpt>
      <trkpt lat="45.34067" lon="4.73629">
        <ele>314.49</ele>
        <time>2022-02-22T10:25:36Z</time>
      </trkpt>
      <trkpt lat="45.34062" lon="4.73644">
        <ele>315.93</ele>
        <time>2022-02-22T10:25:45Z</time>
      </trkpt>
      <trkpt lat="45.34058" lon="4.73652">
        <ele>316.41</ele>
        <time>2022-02-22T10:25:51Z</time>
      </trkpt>
      <trkpt lat="45.34042" lon="4.73671">
        <ele>318.33</ele>
        <time>2022-02-22T10:26:08Z</time>
      </trkpt>
      <trkpt lat="45.34024" lon="4.73691">
        <ele>318.81</ele>
        <time>2022-02-22T10:26:26Z</time>
      </trkpt>
      <trkpt lat="45.34012" lon="4.73713">
        <ele>318.81</ele>
        <time>2022-02-22T10:26:41Z</time>
      </trkpt>
      <trkpt lat="45.34" lon="4.73732">
        <ele>319.78</ele>
        <time>2022-02-22T10:26:54Z</time>
      </trkpt>
      <trkpt lat="45.33984" lon="4.73759">
        <ele>320.74</ele>
        <time>2022-02-22T10:27:13Z</time>
      </trkpt>
      <trkpt lat="45.33973" lon="4.73783">
        <ele>321.22</ele>
        <time>2022-02-22T10:27:30Z</time>
      </trkpt>
      <trkpt lat="45.3396" lon="4.73804">
        <ele>321.7</ele>
        <time>2022-02-22T10:27:45Z</time>
      </trkpt>
      <trkpt lat="45.33952" lon="4.73822">
        <ele>322.18</ele>
        <time>2022-02-22T10:27:57Z</time>
      </trkpt>
      <trkpt lat="45.33946" lon="4.73834">
        <ele>322.66</ele>
        <time>2022-02-22T10:28:04Z</time>
      </trkpt>
      <trkpt lat="45.33935" lon="4.73864">
        <ele>323.62</ele>
        <time>2022-02-22T10:28:21Z</time>
      </trkpt>
      <trkpt lat="45.33919" lon="4.73888">
        <ele>324.1</ele>
        <time>2022-02-22T10:28:39Z</time>
      </trkpt>
      <trkpt lat="45.33909" lon="4.7391">
        <ele>325.06</ele>
        <time>2022-02-22T10:28:55Z</time>
      </trkpt>
      <trkpt lat="45.33898" lon="4.73938">
        <ele>325.54</ele>
        <time>2022-02-22T10:29:11Z</time>
      </trkpt>
      <trkpt lat="45.33893" lon="4.73964">
        <ele>325.54</ele>
        <time>2022-02-22T10:29:27Z</time>
      </trkpt>
      <trkpt lat="45.33889" lon="4.73991">
        <ele>325.06</ele>
        <time>2022-02-22T10:29:41Z</time>
      </trkpt>
      <trkpt lat="45.33887" lon="4.74013">
        <ele>325.06</ele>
        <time>2022-02-22T10:29:52Z</time>
      </trkpt>
      <trkpt lat="45.33884" lon="4.7402">
        <ele>325.54</ele>
        <time>2022-02-22T10:29:56Z</time>
      </trkpt>
      <trkpt lat="45.33874" lon="4.74049">
        <ele>327.95</ele>
        <time>2022-02-22T10:30:13Z</time>
      </trkpt>
      <trkpt lat="45.33882" lon="4.74053">
        <ele>327.47</ele>
        <time>2022-02-22T10:30:21Z</time>
      </trkpt>
      <trkpt lat="45.33905" lon="4.74042">
        <ele>326.02</ele>
        <time>2022-02-22T10:30:41Z</time>
      </trkpt>
      <trkpt lat="45.33922" lon="4.74034">
        <ele>325.06</ele>
        <time>2022-02-22T10:30:57Z</time>
      </trkpt>
      <trkpt lat="45.3394" lon="4.74027">
        <ele>322.66</ele>
        <time>2022-02-22T10:31:12Z</time>
      </trkpt>
      <trkpt lat="45.33959" lon="4.74018">
        <ele>320.26</ele>
        <time>2022-02-22T10:31:29Z</time>
      </trkpt>
      <trkpt lat="45.33978" lon="4.74012">
        <ele>318.81</ele>
        <time>2022-02-22T10:31:46Z</time>
      </trkpt>
      <trkpt lat="45.33995" lon="4.74005">
        <ele>317.37</ele>
        <time>2022-02-22T10:32:00Z</time>
      </trkpt>
      <trkpt lat="45.34012" lon="4.73996">
        <ele>315.93</ele>
        <time>2022-02-22T10:32:15Z</time>
      </trkpt>
      <trkpt lat="45.34034" lon="4.7399">
        <ele>314.01</ele>
        <time>2022-02-22T10:32:31Z</time>
      </trkpt>
      <trkpt lat="45.34051" lon="4.73983">
        <ele>312.57</ele>
        <time>2022-02-22T10:32:46Z</time>
      </trkpt>
      <trkpt lat="45.34068" lon="4.73977">
        <ele>311.6</ele>
        <time>2022-02-22T10:33:00Z</time>
      </trkpt>
      <trkpt lat="45.34079" lon="4.73968">
        <ele>309.68</ele>
        <time>2022-02-22T10:33:12Z</time>
      </trkpt>
      <trkpt lat="45.34097" lon="4.73957">
        <ele>308.24</ele>
        <time>2022-02-22T10:33:28Z</time>
      </trkpt>
      <trkpt lat="45.34109" lon="4.73945">
        <ele>306.8</ele>
        <time>2022-02-22T10:33:41Z</time>
      </trkpt>
      <trkpt lat="45.34124" lon="4.73935">
        <ele>303.91</ele>
        <time>2022-02-22T10:33:54Z</time>
      </trkpt>
      <trkpt lat="45.34136" lon="4.73921">
        <ele>301.99</ele>
        <time>2022-02-22T10:34:09Z</time>
      </trkpt>
      <trkpt lat="45.34147" lon="4.73911">
        <ele>300.07</ele>
        <time>2022-02-22T10:34:21Z</time>
      </trkpt>
      <trkpt lat="45.34157" lon="4.73894">
        <ele>297.18</ele>
        <time>2022-02-22T10:34:34Z</time>
      </trkpt>
      <trkpt lat="45.34165" lon="4.73887">
        <ele>295.74</ele>
        <time>2022-02-22T10:34:46Z</time>
      </trkpt>
      <trkpt lat="45.34175" lon="4.73879">
        <ele>293.82</ele>
        <time>2022-02-22T10:34:58Z</time>
      </trkpt>
      <trkpt lat="45.34187" lon="4.73871">
        <ele>294.78</ele>
        <time>2022-02-22T10:35:11Z</time>
      </trkpt>
      <trkpt lat="45.34199" lon="4.73875">
        <ele>295.74</ele>
        <time>2022-02-22T10:35:24Z</time>
      </trkpt>
      <trkpt lat="45.34211" lon="4.73881">
        <ele>296.7</ele>
        <time>2022-02-22T10:35:37Z</time>
      </trkpt>
      <trkpt lat="45.3422" lon="4.73884">
        <ele>297.18</ele>
        <time>2022-02-22T10:35:45Z</time>
      </trkpt>
      <trkpt lat="45.34227" lon="4.73887">
        <ele>298.15</ele>
        <time>2022-02-22T10:35:49Z</time>
      </trkpt>
      <trkpt lat="45.34254" lon="4.73892">
        <ele>299.59</ele>
        <time>2022-02-22T10:36:04Z</time>
      </trkpt>
      <trkpt lat="45.3426" lon="4.73892">
        <ele>300.55</ele>
        <time>2022-02-22T10:36:09Z</time>
      </trkpt>
      <trkpt lat="45.3428" lon="4.73888">
        <ele>302.47</ele>
        <time>2022-02-22T10:36:26Z</time>
      </trkpt>
      <trkpt lat="45.34287" lon="4.73884">
        <ele>303.43</ele>
        <time>2022-02-22T10:36:33Z</time>
      </trkpt>
      <trkpt lat="45.34292" lon="4.73883">
        <ele>302.95</ele>
        <time>2022-02-22T10:36:37Z</time>
      </trkpt>
      <trkpt lat="45.34309" lon="4.73879">
        <ele>303.43</ele>
        <time>2022-02-22T10:36:51Z</time>
      </trkpt>
      <trkpt lat="45.34315" lon="4.73877">
        <ele>303.43</ele>
        <time>2022-02-22T10:36:55Z</time>
      </trkpt>
      <trkpt lat="45.34326" lon="4.7387">
        <ele>303.43</ele>
        <time>2022-02-22T10:37:06Z</time>
      </trkpt>
      <trkpt lat="45.34349" lon="4.73864">
        <ele>301.51</ele>
        <time>2022-02-22T10:37:26Z</time>
      </trkpt>
      <trkpt lat="45.34369" lon="4.73858">
        <ele>301.03</ele>
        <time>2022-02-22T10:37:44Z</time>
      </trkpt>
      <trkpt lat="45.34386" lon="4.73849">
        <ele>299.59</ele>
        <time>2022-02-22T10:37:59Z</time>
      </trkpt>
      <trkpt lat="45.34394" lon="4.73847">
        <ele>299.11</ele>
        <time>2022-02-22T10:38:15Z</time>
      </trkpt>
      <trkpt lat="45.34395" lon="4.73843">
        <ele>299.59</ele>
        <time>2022-02-22T10:38:47Z</time>
      </trkpt>
      <trkpt lat="45.34405" lon="4.73826">
        <ele>298.63</ele>
        <time>2022-02-22T10:39:04Z</time>
      </trkpt>
      <trkpt lat="45.34414" lon="4.73814">
        <ele>298.15</ele>
        <time>2022-02-22T10:39:17Z</time>
      </trkpt>
      <trkpt lat="45.34429" lon="4.73792">
        <ele>297.67</ele>
        <time>2022-02-22T10:39:35Z</time>
      </trkpt>
      <trkpt lat="45.34434" lon="4.73787">
        <ele>297.67</ele>
        <time>2022-02-22T10:39:40Z</time>
      </trkpt>
      <trkpt lat="45.34449" lon="4.73779">
        <ele>298.15</ele>
        <time>2022-02-22T10:39:54Z</time>
      </trkpt>
      <trkpt lat="45.34465" lon="4.73783">
        <ele>299.11</ele>
        <time>2022-02-22T10:40:08Z</time>
      </trkpt>
      <trkpt lat="45.34468" lon="4.73788">
        <ele>300.07</ele>
        <time>2022-02-22T10:40:12Z</time>
      </trkpt>
      <trkpt lat="45.34472" lon="4.73796">
        <ele>301.51</ele>
        <time>2022-02-22T10:40:18Z</time>
      </trkpt>
      <trkpt lat="45.34476" lon="4.73801">
        <ele>301.51</ele>
        <time>2022-02-22T10:40:21Z</time>
      </trkpt>
      <trkpt lat="45.34483" lon="4.73817">
        <ele>302.47</ele>
        <time>2022-02-22T10:40:32Z</time>
      </trkpt>
      <trkpt lat="45.34487" lon="4.73821">
        <ele>302.95</ele>
        <time>2022-02-22T10:40:36Z</time>
      </trkpt>
      <trkpt lat="45.34484" lon="4.73848">
        <ele>304.88</ele>
        <time>2022-02-22T10:40:54Z</time>
      </trkpt>
      <trkpt lat="45.3448" lon="4.73865">
        <ele>305.36</ele>
        <time>2022-02-22T10:41:03Z</time>
      </trkpt>
      <trkpt lat="45.34484" lon="4.73871">
        <ele>305.84</ele>
        <time>2022-02-22T10:41:08Z</time>
      </trkpt>
      <trkpt lat="45.34501" lon="4.73881">
        <ele>307.76</ele>
        <time>2022-02-22T10:41:24Z</time>
      </trkpt>
      <trkpt lat="45.3452" lon="4.73891">
        <ele>309.2</ele>
        <time>2022-02-22T10:41:40Z</time>
      </trkpt>
      <trkpt lat="45.34541" lon="4.73903">
        <ele>310.64</ele>
        <time>2022-02-22T10:41:59Z</time>
      </trkpt>
      <trkpt lat="45.34554" lon="4.73912">
        <ele>312.09</ele>
        <time>2022-02-22T10:42:13Z</time>
      </trkpt>
      <trkpt lat="45.34557" lon="4.73915">
        <ele>312.09</ele>
        <time>2022-02-22T10:42:16Z</time>
      </trkpt>
      <trkpt lat="45.34553" lon="4.73942">
        <ele>312.57</ele>
        <time>2022-02-22T10:42:32Z</time>
      </trkpt>
      <trkpt lat="45.34549" lon="4.73972">
        <ele>313.05</ele>
        <time>2022-02-22T10:42:49Z</time>
      </trkpt>
      <trkpt lat="45.34544" lon="4.73999">
        <ele>313.53</ele>
        <time>2022-02-22T10:43:05Z</time>
        <extensions>
          <visugpx:TrkExtension xmlns:visugpx="https://www.visugpx.com/editgpx/">
            <visugpx:node>1</visugpx:node>
            </visugpx:TrkExtension>
        </extensions>
      </trkpt>
      <trkpt lat="45.3454" lon="4.74009">
        <ele>314</ele>
      </trkpt>
      <trkpt lat="45.34544" lon="4.74006">
        <ele>314.1</ele>
      </trkpt>
      <trkpt lat="45.34547" lon="4.74005">
        <ele>314.4</ele>
      </trkpt>
      <trkpt lat="45.3455" lon="4.74005">
        <ele>314.7</ele>
      </trkpt>
      <trkpt lat="45.34556" lon="4.74008">
        <ele>315.3</ele>
      </trkpt>
      <trkpt lat="45.34564" lon="4.74015">
        <ele>315.8</ele>
      </trkpt>
      <trkpt lat="45.34575" lon="4.74028">
        <ele>316.7</ele>
      </trkpt>
      <trkpt lat="45.34578" lon="4.74031">
        <ele>316.8</ele>
      </trkpt>
      <trkpt lat="45.34593" lon="4.7405">
        <ele>316.7</ele>
      </trkpt>
      <trkpt lat="45.346" lon="4.74059">
        <ele>316.4</ele>
      </trkpt>
      <trkpt lat="45.34607" lon="4.7407">
        <ele>316.1</ele>
      </trkpt>
      <trkpt lat="45.34618" lon="4.74084">
        <ele>315.7</ele>
      </trkpt>
      <trkpt lat="45.34628" lon="4.741">
        <ele>315.2</ele>
      </trkpt>
      <trkpt lat="45.34637" lon="4.74113">
        <ele>315</ele>
      </trkpt>
      <trkpt lat="45.34649" lon="4.7413">
        <ele>315</ele>
      </trkpt>
      <trkpt lat="45.34652" lon="4.74133">
        <ele>315</ele>
      </trkpt>
      <trkpt lat="45.34659" lon="4.74143">
        <ele>315</ele>
      </trkpt>
      <trkpt lat="45.34671" lon="4.74158">
        <ele>314.8</ele>
      </trkpt>
      <trkpt lat="45.34679" lon="4.74167">
        <ele>314.6</ele>
        <extensions>
          <visugpx:TrkExtension xmlns:visugpx="https://www.visugpx.com/editgpx/">
            <visugpx:node>2</visugpx:node>
            </visugpx:TrkExtension>
        </extensions>
      </trkpt>
      <trkpt lat="45.34685" lon="4.74173">
        <ele>314.4</ele>
      </trkpt>
      <trkpt lat="45.34693" lon="4.74181">
        <ele>314.1</ele>
      </trkpt>
      <trkpt lat="45.34704" lon="4.74191">
        <ele>313</ele>
      </trkpt>
      <trkpt lat="45.34712" lon="4.74199">
        <ele>312.3</ele>
      </trkpt>
      <trkpt lat="45.34723" lon="4.74214">
        <ele>311.6</ele>
      </trkpt>
      <trkpt lat="45.34735" lon="4.74232">
        <ele>310</ele>
      </trkpt>
      <trkpt lat="45.34741" lon="4.74245">
        <ele>309</ele>
      </trkpt>
      <trkpt lat="45.34749" lon="4.74269">
        <ele>307.4</ele>
      </trkpt>
      <trkpt lat="45.34754" lon="4.7428">
        <ele>307</ele>
      </trkpt>
      <trkpt lat="45.34754" lon="4.74281">
        <ele>306.9</ele>
      </trkpt>
      <trkpt lat="45.34748" lon="4.74293">
        <ele>306.1</ele>
      </trkpt>
      <trkpt lat="45.3473" lon="4.74322">
        <ele>305.5</ele>
      </trkpt>
      <trkpt lat="45.34717" lon="4.74344">
        <ele>304.6</ele>
      </trkpt>
      <trkpt lat="45.34705" lon="4.74365">
        <ele>304</ele>
      </trkpt>
      <trkpt lat="45.3469" lon="4.74392">
        <ele>302.2</ele>
      </trkpt>
      <trkpt lat="45.3468" lon="4.74413">
        <ele>301.1</ele>
      </trkpt>
      <trkpt lat="45.34671" lon="4.74432">
        <ele>300.2</ele>
      </trkpt>
      <trkpt lat="45.34663" lon="4.74453">
        <ele>298.5</ele>
      </trkpt>
      <trkpt lat="45.34663" lon="4.74455">
        <ele>298.3</ele>
      </trkpt>
      <trkpt lat="45.34659" lon="4.74466">
        <ele>297.7</ele>
      </trkpt>
      <trkpt lat="45.34656" lon="4.74481">
        <ele>296.9</ele>
      </trkpt>
      <trkpt lat="45.34651" lon="4.74513">
        <ele>295.4</ele>
      </trkpt>
      <trkpt lat="45.3465" lon="4.74525">
        <ele>294.8</ele>
      </trkpt>
      <trkpt lat="45.34648" lon="4.74542">
        <ele>294.2</ele>
      </trkpt>
      <trkpt lat="45.34647" lon="4.74548">
        <ele>294</ele>
      </trkpt>
      <trkpt lat="45.34645" lon="4.74576">
        <ele>293.2</ele>
      </trkpt>
      <trkpt lat="45.34643" lon="4.74597">
        <ele>292.8</ele>
      </trkpt>
      <trkpt lat="45.34642" lon="4.74618">
        <ele>292.2</ele>
      </trkpt>
      <trkpt lat="45.34642" lon="4.74625">
        <ele>291.9</ele>
      </trkpt>
      <trkpt lat="45.34642" lon="4.74635">
        <ele>291.5</ele>
      </trkpt>
      <trkpt lat="45.34641" lon="4.7465">
        <ele>290.8</ele>
      </trkpt>
      <trkpt lat="45.3464" lon="4.74661">
        <ele>290.2</ele>
      </trkpt>
      <trkpt lat="45.34639" lon="4.74672">
        <ele>289.6</ele>
      </trkpt>
      <trkpt lat="45.34637" lon="4.74683">
        <ele>289.1</ele>
      </trkpt>
      <trkpt lat="45.34634" lon="4.74692">
        <ele>288.7</ele>
        <extensions>
          <visugpx:TrkExtension xmlns:visugpx="https://www.visugpx.com/editgpx/">
            <visugpx:node>3</visugpx:node>
            </visugpx:TrkExtension>
        </extensions>
      </trkpt>
      <trkpt lat="45.34637" lon="4.74683">
        <ele>289.1</ele>
      </trkpt>
      <trkpt lat="45.34637" lon="4.74706">
        <ele>287</ele>
      </trkpt>
      <trkpt lat="45.34629" lon="4.74765">
        <ele>283.3</ele>
      </trkpt>
      <trkpt lat="45.34624" lon="4.74812">
        <ele>281.1</ele>
      </trkpt>
      <trkpt lat="45.34625" lon="4.74845">
        <ele>278.7</ele>
      </trkpt>
      <trkpt lat="45.34623" lon="4.74867">
        <ele>277.1</ele>
      </trkpt>
      <trkpt lat="45.34621" lon="4.74878">
        <ele>276.1</ele>
      </trkpt>
      <trkpt lat="45.34621" lon="4.74889">
        <ele>274.9</ele>
      </trkpt>
      <trkpt lat="45.34624" lon="4.74904">
        <ele>273.6</ele>
      </trkpt>
      <trkpt lat="45.34628" lon="4.74916">
        <ele>271.8</ele>
      </trkpt>
      <trkpt lat="45.34634" lon="4.74926">
        <ele>271.6</ele>
      </trkpt>
      <trkpt lat="45.34641" lon="4.74929">
        <ele>270.2</ele>
      </trkpt>
      <trkpt lat="45.34642" lon="4.7493">
        <ele>270.1</ele>
        <extensions>
          <visugpx:TrkExtension xmlns:visugpx="https://www.visugpx.com/editgpx/">
            <visugpx:node>4</visugpx:node>
            </visugpx:TrkExtension>
        </extensions>
      </trkpt>
      <trkpt lat="45.34641" lon="4.74929">
        <ele>270.2</ele>
      </trkpt>
      <trkpt lat="45.34643" lon="4.74928">
        <ele>269.5</ele>
      </trkpt>
      <trkpt lat="45.34645" lon="4.74921">
        <ele>268</ele>
      </trkpt>
      <trkpt lat="45.34647" lon="4.74912">
        <ele>267.7</ele>
      </trkpt>
      <trkpt lat="45.34653" lon="4.749">
        <ele>268.5</ele>
      </trkpt>
      <trkpt lat="45.34661" lon="4.74889">
        <ele>269</ele>
      </trkpt>
      <trkpt lat="45.34669" lon="4.74874">
        <ele>269</ele>
      </trkpt>
      <trkpt lat="45.34673" lon="4.74854">
        <ele>270.1</ele>
      </trkpt>
      <trkpt lat="45.34684" lon="4.74805">
        <ele>272.9</ele>
      </trkpt>
      <trkpt lat="45.34688" lon="4.74785">
        <ele>274.2</ele>
      </trkpt>
      <trkpt lat="45.3469" lon="4.74775">
        <ele>274.8</ele>
      </trkpt>
      <trkpt lat="45.34696" lon="4.74747">
        <ele>275.9</ele>
      </trkpt>
      <trkpt lat="45.34712" lon="4.74683">
        <ele>276.6</ele>
      </trkpt>
      <trkpt lat="45.34716" lon="4.74665">
        <ele>276.5</ele>
      </trkpt>
      <trkpt lat="45.34717" lon="4.74659">
        <ele>276.6</ele>
      </trkpt>
      <trkpt lat="45.34717" lon="4.74645">
        <ele>277.5</ele>
      </trkpt>
      <trkpt lat="45.34718" lon="4.74639">
        <ele>277.8</ele>
      </trkpt>
      <trkpt lat="45.34723" lon="4.74624">
        <ele>277.9</ele>
      </trkpt>
      <trkpt lat="45.34735" lon="4.74603">
        <ele>277.1</ele>
      </trkpt>
      <trkpt lat="45.34743" lon="4.74589">
        <ele>276.7</ele>
      </trkpt>
      <trkpt lat="45.34755" lon="4.74569">
        <ele>276.8</ele>
      </trkpt>
      <trkpt lat="45.34763" lon="4.74559">
        <ele>276.4</ele>
      </trkpt>
      <trkpt lat="45.34774" lon="4.74552">
        <ele>274.9</ele>
      </trkpt>
      <trkpt lat="45.3479" lon="4.7453">
        <ele>274.6</ele>
      </trkpt>
      <trkpt lat="45.34794" lon="4.74525">
        <ele>274.5</ele>
      </trkpt>
      <trkpt lat="45.348" lon="4.74525">
        <ele>273.8</ele>
      </trkpt>
      <trkpt lat="45.34814" lon="4.74533">
        <ele>271.3</ele>
      </trkpt>
      <trkpt lat="45.34819" lon="4.74533">
        <ele>270.5</ele>
        <extensions>
          <visugpx:TrkExtension xmlns:visugpx="https://www.visugpx.com/editgpx/">
            <visugpx:node>5</visugpx:node>
            </visugpx:TrkExtension>
        </extensions>
      </trkpt>
      <trkpt lat="45.3482" lon="4.74533">
        <ele>270.3</ele>
      </trkpt>
      <trkpt lat="45.34843" lon="4.74552">
        <ele>264.1</ele>
      </trkpt>
      <trkpt lat="45.34848" lon="4.7457">
        <ele>262.5</ele>
      </trkpt>
      <trkpt lat="45.34853" lon="4.74577">
        <ele>261.5</ele>
      </trkpt>
      <trkpt lat="45.34878" lon="4.74604">
        <ele>254.5</ele>
      </trkpt>
      <trkpt lat="45.3488" lon="4.74608">
        <ele>254.1</ele>
      </trkpt>
      <trkpt lat="45.34883" lon="4.74614">
        <ele>253.4</ele>
      </trkpt>
      <trkpt lat="45.34885" lon="4.74625">
        <ele>252.8</ele>
      </trkpt>
      <trkpt lat="45.34887" lon="4.74644">
        <ele>252</ele>
      </trkpt>
      <trkpt lat="45.3489" lon="4.74653">
        <ele>250.7</ele>
      </trkpt>
      <trkpt lat="45.34906" lon="4.74667">
        <ele>246.3</ele>
      </trkpt>
      <trkpt lat="45.3491" lon="4.74672">
        <ele>245.1</ele>
      </trkpt>
      <trkpt lat="45.34912" lon="4.74684">
        <ele>243.8</ele>
      </trkpt>
      <trkpt lat="45.34906" lon="4.74726">
        <ele>241.8</ele>
      </trkpt>
      <trkpt lat="45.34899" lon="4.74772">
        <ele>234.8</ele>
      </trkpt>
      <trkpt lat="45.34894" lon="4.74777">
        <ele>234.4</ele>
      </trkpt>
      <trkpt lat="45.34889" lon="4.74777">
        <ele>235.2</ele>
      </trkpt>
      <trkpt lat="45.34881" lon="4.74778">
        <ele>236.1</ele>
      </trkpt>
      <trkpt lat="45.34876" lon="4.7478">
        <ele>236.5</ele>
      </trkpt>
      <trkpt lat="45.34875" lon="4.7479">
        <ele>235</ele>
      </trkpt>
      <trkpt lat="45.34876" lon="4.74797">
        <ele>233.7</ele>
      </trkpt>
      <trkpt lat="45.34881" lon="4.74803">
        <ele>231.9</ele>
      </trkpt>
      <trkpt lat="45.34886" lon="4.74808">
        <ele>230.2</ele>
      </trkpt>
      <trkpt lat="45.34886" lon="4.74814">
        <ele>229.5</ele>
      </trkpt>
      <trkpt lat="45.34885" lon="4.7482">
        <ele>228.8</ele>
      </trkpt>
      <trkpt lat="45.34884" lon="4.74829">
        <ele>227.8</ele>
      </trkpt>
      <trkpt lat="45.34884" lon="4.74836">
        <ele>226.6</ele>
      </trkpt>
      <trkpt lat="45.34884" lon="4.74845">
        <ele>224.7</ele>
      </trkpt>
      <trkpt lat="45.34883" lon="4.7485">
        <ele>223.7</ele>
      </trkpt>
      <trkpt lat="45.34878" lon="4.74854">
        <ele>223.2</ele>
      </trkpt>
      <trkpt lat="45.34866" lon="4.74859">
        <ele>223</ele>
      </trkpt>
      <trkpt lat="45.34875" lon="4.74861">
        <ele>222</ele>
      </trkpt>
      <trkpt lat="45.34881" lon="4.74862">
        <ele>221.4</ele>
      </trkpt>
      <trkpt lat="45.34883" lon="4.74863">
        <ele>221</ele>
        <extensions>
          <visugpx:TrkExtension xmlns:visugpx="https://www.visugpx.com/editgpx/">
            <visugpx:node>6</visugpx:node>
            </visugpx:TrkExtension>
        </extensions>
      </trkpt>
      <trkpt lat="45.34888" lon="4.74865">
        <ele>220.1</ele>
      </trkpt>
      <trkpt lat="45.34894" lon="4.74866">
        <ele>218.9</ele>
      </trkpt>
      <trkpt lat="45.349" lon="4.74864">
        <ele>218.4</ele>
      </trkpt>
      <trkpt lat="45.34904" lon="4.74861">
        <ele>218.3</ele>
      </trkpt>
      <trkpt lat="45.34908" lon="4.74856">
        <ele>218</ele>
      </trkpt>
      <trkpt lat="45.34914" lon="4.74841">
        <ele>217.6</ele>
      </trkpt>
      <trkpt lat="45.34917" lon="4.74834">
        <ele>216.9</ele>
      </trkpt>
      <trkpt lat="45.3492" lon="4.74829">
        <ele>216.8</ele>
      </trkpt>
      <trkpt lat="45.34923" lon="4.74825">
        <ele>216.7</ele>
      </trkpt>
      <trkpt lat="45.34927" lon="4.7482">
        <ele>216.5</ele>
      </trkpt>
      <trkpt lat="45.34934" lon="4.74816">
        <ele>215.5</ele>
      </trkpt>
      <trkpt lat="45.34942" lon="4.74812">
        <ele>214.4</ele>
      </trkpt>
      <trkpt lat="45.34952" lon="4.74807">
        <ele>213.4</ele>
      </trkpt>
      <trkpt lat="45.34964" lon="4.74802">
        <ele>212.2</ele>
      </trkpt>
      <trkpt lat="45.34976" lon="4.74796">
        <ele>210.9</ele>
      </trkpt>
      <trkpt lat="45.34978" lon="4.74794">
        <ele>210.7</ele>
      </trkpt>
      <trkpt lat="45.34984" lon="4.74789">
        <ele>210.2</ele>
      </trkpt>
      <trkpt lat="45.34991" lon="4.74781">
        <ele>209.8</ele>
        <extensions>
          <visugpx:TrkExtension xmlns:visugpx="https://www.visugpx.com/editgpx/">
            <visugpx:node>7</visugpx:node>
            </visugpx:TrkExtension>
        </extensions>
      </trkpt>
      <trkpt lat="45.34996" lon="4.74774">
        <ele>209.6</ele>
      </trkpt>
      <trkpt lat="45.34999" lon="4.74768">
        <ele>209.7</ele>
      </trkpt>
      <trkpt lat="45.35001" lon="4.74765">
        <ele>209.7</ele>
      </trkpt>
      <trkpt lat="45.35002" lon="4.74763">
        <ele>209.9</ele>
      </trkpt>
      <trkpt lat="45.35005" lon="4.74759">
        <ele>210.1</ele>
        <extensions>
          <visugpx:TrkExtension xmlns:visugpx="https://www.visugpx.com/editgpx/">
            <visugpx:node>9</visugpx:node>
            </visugpx:TrkExtension>
        </extensions>
      </trkpt>
      <trkpt lat="45.35008" lon="4.74756">
        <ele>210.2</ele>
      </trkpt>
      <trkpt lat="45.35011" lon="4.74755">
        <ele>210</ele>
      </trkpt>
      <trkpt lat="45.35015" lon="4.74755">
        <ele>209.6</ele>
      </trkpt>
      <trkpt lat="45.35018" lon="4.74757">
        <ele>208.9</ele>
      </trkpt>
      <trkpt lat="45.35019" lon="4.74759">
        <ele>208.4</ele>
      </trkpt>
      <trkpt lat="45.3502" lon="4.74762">
        <ele>207.8</ele>
      </trkpt>
      <trkpt lat="45.35038" lon="4.74763">
        <ele>205.9</ele>
      </trkpt>
      <trkpt lat="45.3509" lon="4.74777">
        <ele>198.9</ele>
      </trkpt>
      <trkpt lat="45.35094" lon="4.7478">
        <ele>198.4</ele>
      </trkpt>
      <trkpt lat="45.35096" lon="4.74782">
        <ele>198.2</ele>
      </trkpt>
      <trkpt lat="45.35096" lon="4.74784">
        <ele>198</ele>
      </trkpt>
      <trkpt lat="45.35096" lon="4.74789">
        <ele>197.6</ele>
      </trkpt>
      <trkpt lat="45.35094" lon="4.74801">
        <ele>196.8</ele>
      </trkpt>
      <trkpt lat="45.35077" lon="4.74878">
        <ele>189.9</ele>
      </trkpt>
      <trkpt lat="45.35071" lon="4.74911">
        <ele>187.9</ele>
      </trkpt>
      <trkpt lat="45.35068" lon="4.7493">
        <ele>185.8</ele>
      </trkpt>
      <trkpt lat="45.35067" lon="4.7494">
        <ele>184.6</ele>
      </trkpt>
      <trkpt lat="45.35067" lon="4.74949">
        <ele>183.1</ele>
      </trkpt>
      <trkpt lat="45.3507" lon="4.7496">
        <ele>180.9</ele>
      </trkpt>
      <trkpt lat="45.35072" lon="4.74965">
        <ele>179.7</ele>
        <extensions>
          <visugpx:TrkExtension xmlns:visugpx="https://www.visugpx.com/editgpx/">
            <visugpx:node>10</visugpx:node>
            </visugpx:TrkExtension>
        </extensions>
      </trkpt>
      <trkpt lat="45.35082" lon="4.74985">
        <ele>173.5</ele>
      </trkpt>
      <trkpt lat="45.35085" lon="4.7499">
        <ele>171.8</ele>
      </trkpt>
      <trkpt lat="45.35094" lon="4.75003">
        <ele>168.5</ele>
      </trkpt>
      <trkpt lat="45.35111" lon="4.75013">
        <ele>165.2</ele>
        <extensions>
          <visugpx:TrkExtension xmlns:visugpx="https://www.visugpx.com/editgpx/">
            <visugpx:node>12</visugpx:node>
            </visugpx:TrkExtension>
        </extensions>
      </trkpt>
      <trkpt lat="45.35113" lon="4.75015">
        <ele>164.3</ele>
      </trkpt>
      <trkpt lat="45.35124" lon="4.75022">
        <ele>160.4</ele>
      </trkpt>
      <trkpt lat="45.35121" lon="4.75028">
        <ele>159.9</ele>
      </trkpt>
      <trkpt lat="45.3512" lon="4.75031">
        <ele>160.1</ele>
      </trkpt>
      <trkpt lat="45.35118" lon="4.7505">
        <ele>161.1</ele>
      </trkpt>
      <trkpt lat="45.35113" lon="4.7509">
        <ele>160.6</ele>
      </trkpt>
      <trkpt lat="45.35107" lon="4.75108">
        <ele>162.1</ele>
      </trkpt>
      <trkpt lat="45.35105" lon="4.75115">
        <ele>162.8</ele>
      </trkpt>
      <trkpt lat="45.35099" lon="4.75148">
        <ele>164.2</ele>
      </trkpt>
      <trkpt lat="45.35097" lon="4.75178">
        <ele>164.7</ele>
      </trkpt>
      <trkpt lat="45.351" lon="4.752">
        <ele>163.1</ele>
      </trkpt>
      <trkpt lat="45.35117" lon="4.7525">
        <ele>161.2</ele>
      </trkpt>
      <trkpt lat="45.35131" lon="4.75278">
        <ele>160.6</ele>
      </trkpt>
      <trkpt lat="45.35144" lon="4.75304">
        <ele>157.8</ele>
      </trkpt>
      <trkpt lat="45.35152" lon="4.75326">
        <ele>157.5</ele>
      </trkpt>
      <trkpt lat="45.35159" lon="4.7537">
        <ele>154.8</ele>
      </trkpt>
      <trkpt lat="45.35166" lon="4.7539">
        <ele>153.5</ele>
      </trkpt>
      <trkpt lat="45.35168" lon="4.75395">
        <ele>153.9</ele>
      </trkpt>
      <trkpt lat="45.35172" lon="4.75403">
        <ele>154.1</ele>
      </trkpt>
      <trkpt lat="45.35177" lon="4.75416">
        <ele>154.1</ele>
      </trkpt>
      <trkpt lat="45.35182" lon="4.75447">
        <ele>153</ele>
      </trkpt>
      <trkpt lat="45.35187" lon="4.75501">
        <ele>155.4</ele>
      </trkpt>
      <trkpt lat="45.35189" lon="4.75514">
        <ele>155.1</ele>
      </trkpt>
      <trkpt lat="45.3519" lon="4.75516">
        <ele>154.6</ele>
      </trkpt>
      <trkpt lat="45.35193" lon="4.75535">
        <ele>153.6</ele>
      </trkpt>
      <trkpt lat="45.35196" lon="4.7555">
        <ele>153</ele>
      </trkpt>
      <trkpt lat="45.352" lon="4.75559">
        <ele>152</ele>
      </trkpt>
      <trkpt lat="45.35201" lon="4.75563">
        <ele>151.9</ele>
      </trkpt>
      <trkpt lat="45.35206" lon="4.75571">
        <ele>150.3</ele>
      </trkpt>
      <trkpt lat="45.35211" lon="4.75579">
        <ele>148.6</ele>
      </trkpt>
      <trkpt lat="45.35215" lon="4.75595">
        <ele>148.3</ele>
      </trkpt>
      <trkpt lat="45.35217" lon="4.75606">
        <ele>148.6</ele>
      </trkpt>
      <trkpt lat="45.35216" lon="4.75611">
        <ele>149.5</ele>
      </trkpt>
      <trkpt lat="45.35216" lon="4.75624">
        <ele>150.6</ele>
      </trkpt>
      <trkpt lat="45.35217" lon="4.75651">
        <ele>150.6</ele>
      </trkpt>
      <trkpt lat="45.35218" lon="4.75655">
        <ele>149.9</ele>
      </trkpt>
      <trkpt lat="45.35223" lon="4.75662">
        <ele>148.2</ele>
      </trkpt>
      <trkpt lat="45.35229" lon="4.75668">
        <ele>146.7</ele>
      </trkpt>
      <trkpt lat="45.35232" lon="4.7567">
        <ele>146</ele>
      </trkpt>
      <trkpt lat="45.35233" lon="4.75671">
        <ele>145.8</ele>
      </trkpt>
      <trkpt lat="45.35232" lon="4.75679">
        <ele>145.4</ele>
      </trkpt>
      <trkpt lat="45.3523" lon="4.757">
        <ele>144</ele>
      </trkpt>
      <trkpt lat="45.35229" lon="4.75715">
        <ele>142.8</ele>
      </trkpt>
      <trkpt lat="45.3522" lon="4.75718">
        <ele>142.4</ele>
      </trkpt>
      <trkpt lat="45.35219" lon="4.75718">
        <ele>142.4</ele>
      </trkpt>
      <trkpt lat="45.35217" lon="4.75729">
        <ele>141.9</ele>
      </trkpt>
      <trkpt lat="45.35214" lon="4.75754">
        <ele>142</ele>
      </trkpt>
      <trkpt lat="45.35214" lon="4.75763">
        <ele>142</ele>
      </trkpt>
      <trkpt lat="45.35213" lon="4.75769">
        <ele>142</ele>
      </trkpt>
      <trkpt lat="45.3521" lon="4.75779">
        <ele>142</ele>
      </trkpt>
      <trkpt lat="45.35205" lon="4.7579">
        <ele>141.9</ele>
      </trkpt>
      <trkpt lat="45.35201" lon="4.758">
        <ele>141.6</ele>
      </trkpt>
      <trkpt lat="45.35198" lon="4.75808">
        <ele>141.2</ele>
      </trkpt>
      <trkpt lat="45.35198" lon="4.75814">
        <ele>141.2</ele>
      </trkpt>
      <trkpt lat="45.352" lon="4.75827">
        <ele>141.1</ele>
      </trkpt>
      <trkpt lat="45.3519" lon="4.75824">
        <ele>140.8</ele>
      </trkpt>
      <trkpt lat="45.35186" lon="4.75823">
        <ele>140.7</ele>
        <extensions>
          <visugpx:TrkExtension xmlns:visugpx="https://www.visugpx.com/editgpx/">
            <visugpx:node>13</visugpx:node>
            </visugpx:TrkExtension>
        </extensions>
      </trkpt>
      <trkpt lat="45.3518" lon="4.75821">
        <ele>140.5</ele>
      </trkpt>
      <trkpt lat="45.35175" lon="4.75821">
        <ele>140.3</ele>
      </trkpt>
      <trkpt lat="45.35171" lon="4.75822">
        <ele>140.2</ele>
      </trkpt>
      <trkpt lat="45.35167" lon="4.75825">
        <ele>140</ele>
      </trkpt>
      <trkpt lat="45.35164" lon="4.75829">
        <ele>140</ele>
      </trkpt>
      <trkpt lat="45.3516" lon="4.7584">
        <ele>140</ele>
      </trkpt>
      <trkpt lat="45.35158" lon="4.75845">
        <ele>140</ele>
      </trkpt>
      <trkpt lat="45.35158" lon="4.75852">
        <ele>140</ele>
      </trkpt>
      <trkpt lat="45.35156" lon="4.75866">
        <ele>139.8</ele>
      </trkpt>
      <trkpt lat="45.35155" lon="4.75875">
        <ele>139.5</ele>
      </trkpt>
      <trkpt lat="45.35153" lon="4.75881">
        <ele>139.3</ele>
      </trkpt>
      <trkpt lat="45.35149" lon="4.75883">
        <ele>139.2</ele>
      </trkpt>
      <trkpt lat="45.35145" lon="4.75885">
        <ele>139.1</ele>
        <extensions>
          <visugpx:TrkExtension xmlns:visugpx="https://www.visugpx.com/editgpx/">
            <visugpx:node>14</visugpx:node>
            </visugpx:TrkExtension>
        </extensions>
      </trkpt>
      <trkpt lat="45.35145" lon="4.75884">
        <ele>147.7</ele>
        <time>2022-02-22T08:33:17Z</time>
        <extensions>
          <visugpx:TrkExtension xmlns:visugpx="https://www.visugpx.com/editgpx/">
            <visugpx:node>8</visugpx:node>
            </visugpx:TrkExtension>
        </extensions>
      </trkpt>
      <trkpt lat="45.35145" lon="4.75883">
        <ele>149.62</ele>
        <time>2022-02-22T08:33:21Z</time>
      </trkpt>
      <trkpt lat="45.35147" lon="4.75879">
        <ele>151.54</ele>
        <time>2022-02-22T08:33:26Z</time>
      </trkpt>
      <trkpt lat="45.35148" lon="4.75877">
        <ele>154.91</ele>
        <time>2022-02-22T08:33:37Z</time>
      </trkpt>
      <trkpt lat="45.35151" lon="4.75872">
        <ele>153.95</ele>
        <time>2022-02-22T08:34:09Z</time>
      </trkpt>
      <trkpt lat="45.35158" lon="4.7587">
        <ele>153.95</ele>
        <time>2022-02-22T08:34:33Z</time>
      </trkpt>
      <trkpt lat="45.35159" lon="4.75866">
        <ele>153.95</ele>
        <time>2022-02-22T08:34:50Z</time>
      </trkpt>
      <trkpt lat="45.35156" lon="4.75866">
        <ele>153.47</ele>
        <time>2022-02-22T08:35:23Z</time>
      </trkpt>
      <trkpt lat="45.35155" lon="4.75862">
        <ele>153.47</ele>
        <time>2022-02-22T08:35:50Z</time>
      </trkpt>
      <trkpt lat="45.35158" lon="4.75857">
        <ele>153.47</ele>
        <time>2022-02-22T08:36:03Z</time>
      </trkpt>
      <trkpt lat="45.3516" lon="4.75857">
        <ele>153.95</ele>
        <time>2022-02-22T08:36:18Z</time>
      </trkpt>
      <trkpt lat="45.35163" lon="4.75846">
        <ele>154.43</ele>
        <time>2022-02-22T08:36:32Z</time>
      </trkpt>
      <trkpt lat="45.35159" lon="4.75842">
        <ele>154.91</ele>
        <time>2022-02-22T08:37:01Z</time>
      </trkpt>
      <trkpt lat="45.35165" lon="4.75827">
        <ele>155.39</ele>
        <time>2022-02-22T08:37:21Z</time>
      </trkpt>
      <trkpt lat="45.35176" lon="4.75825">
        <ele>154.91</ele>
        <time>2022-02-22T08:37:33Z</time>
      </trkpt>
      <trkpt lat="45.35194" lon="4.75828">
        <ele>155.39</ele>
        <time>2022-02-22T08:37:49Z</time>
      </trkpt>
      <trkpt lat="45.352" lon="4.75825">
        <ele>154.91</ele>
        <time>2022-02-22T08:38:17Z</time>
      </trkpt>
      <trkpt lat="45.35199" lon="4.75808">
        <ele>154.91</ele>
        <time>2022-02-22T08:38:33Z</time>
      </trkpt>
      <trkpt lat="45.35212" lon="4.75787">
        <ele>154.91</ele>
        <time>2022-02-22T08:38:50Z</time>
      </trkpt>
      <trkpt lat="45.35211" lon="4.7577">
        <ele>154.91</ele>
        <time>2022-02-22T08:38:58Z</time>
      </trkpt>
      <trkpt lat="45.35208" lon="4.75763">
        <ele>155.39</ele>
        <time>2022-02-22T08:39:08Z</time>
      </trkpt>
      <trkpt lat="45.35215" lon="4.75751">
        <ele>155.39</ele>
        <time>2022-02-22T08:39:18Z</time>
      </trkpt>
      <trkpt lat="45.35223" lon="4.75725">
        <ele>155.87</ele>
        <time>2022-02-22T08:39:35Z</time>
      </trkpt>
      <trkpt lat="45.35227" lon="4.75712">
        <ele>156.83</ele>
        <time>2022-02-22T08:39:49Z</time>
      </trkpt>
      <trkpt lat="45.35227" lon="4.75692">
        <ele>159.24</ele>
        <time>2022-02-22T08:40:02Z</time>
      </trkpt>
      <trkpt lat="45.35223" lon="4.75664">
        <ele>161.16</ele>
        <time>2022-02-22T08:40:18Z</time>
      </trkpt>
      <trkpt lat="45.35221" lon="4.75657">
        <ele>162.6</ele>
        <time>2022-02-22T08:40:24Z</time>
      </trkpt>
      <trkpt lat="45.35217" lon="4.75628">
        <ele>164.04</ele>
        <time>2022-02-22T08:40:41Z</time>
      </trkpt>
      <trkpt lat="45.35216" lon="4.75606">
        <ele>164.04</ele>
        <time>2022-02-22T08:40:55Z</time>
      </trkpt>
      <trkpt lat="45.35214" lon="4.7559">
        <ele>164.04</ele>
        <time>2022-02-22T08:41:04Z</time>
      </trkpt>
      <trkpt lat="45.35203" lon="4.75562">
        <ele>165</ele>
        <time>2022-02-22T08:41:22Z</time>
      </trkpt>
      <trkpt lat="45.35195" lon="4.75541">
        <ele>165</ele>
        <time>2022-02-22T08:41:37Z</time>
      </trkpt>
      <trkpt lat="45.35187" lon="4.75504">
        <ele>165.96</ele>
        <time>2022-02-22T08:41:57Z</time>
      </trkpt>
      <trkpt lat="45.35182" lon="4.75484">
        <ele>165.96</ele>
        <time>2022-02-22T08:42:13Z</time>
      </trkpt>
      <trkpt lat="45.35182" lon="4.75459">
        <ele>165</ele>
        <time>2022-02-22T08:42:27Z</time>
      </trkpt>
      <trkpt lat="45.35178" lon="4.75424">
        <ele>165</ele>
        <time>2022-02-22T08:42:44Z</time>
      </trkpt>
      <trkpt lat="45.35169" lon="4.75399">
        <ele>165</ele>
        <time>2022-02-22T08:42:59Z</time>
      </trkpt>
      <trkpt lat="45.35157" lon="4.75364">
        <ele>165.48</ele>
        <time>2022-02-22T08:43:19Z</time>
      </trkpt>
      <trkpt lat="45.35157" lon="4.75337">
        <ele>166.93</ele>
        <time>2022-02-22T08:43:35Z</time>
      </trkpt>
      <trkpt lat="45.35152" lon="4.7532">
        <ele>168.37</ele>
        <time>2022-02-22T08:43:45Z</time>
      </trkpt>
      <trkpt lat="45.35151" lon="4.75313">
        <ele>168.85</ele>
        <time>2022-02-22T08:43:50Z</time>
      </trkpt>
      <trkpt lat="45.3514" lon="4.75295">
        <ele>169.81</ele>
        <time>2022-02-22T08:44:05Z</time>
      </trkpt>
      <trkpt lat="45.35137" lon="4.75289">
        <ele>169.81</ele>
        <time>2022-02-22T08:44:08Z</time>
      </trkpt>
      <trkpt lat="45.35125" lon="4.75264">
        <ele>170.77</ele>
        <time>2022-02-22T08:44:24Z</time>
      </trkpt>
      <trkpt lat="45.3512" lon="4.75251">
        <ele>170.77</ele>
        <time>2022-02-22T08:44:30Z</time>
      </trkpt>
      <trkpt lat="45.35112" lon="4.75233">
        <ele>171.25</ele>
        <time>2022-02-22T08:44:43Z</time>
      </trkpt>
      <trkpt lat="45.35102" lon="4.7521">
        <ele>171.25</ele>
        <time>2022-02-22T08:44:59Z</time>
      </trkpt>
      <trkpt lat="45.351" lon="4.75207">
        <ele>171.73</ele>
        <time>2022-02-22T08:45:02Z</time>
      </trkpt>
      <trkpt lat="45.35099" lon="4.75182">
        <ele>172.21</ele>
        <time>2022-02-22T08:45:18Z</time>
      </trkpt>
      <trkpt lat="45.35098" lon="4.75167">
        <ele>172.21</ele>
        <time>2022-02-22T08:45:27Z</time>
      </trkpt>
      <trkpt lat="45.35099" lon="4.75144">
        <ele>173.17</ele>
        <time>2022-02-22T08:45:40Z</time>
      </trkpt>
      <trkpt lat="45.35104" lon="4.75115">
        <ele>172.69</ele>
        <time>2022-02-22T08:45:57Z</time>
      </trkpt>
      <trkpt lat="45.35108" lon="4.75097">
        <ele>171.73</ele>
        <time>2022-02-22T08:46:08Z</time>
      </trkpt>
      <trkpt lat="45.35115" lon="4.75072">
        <ele>170.29</ele>
        <time>2022-02-22T08:46:25Z</time>
      </trkpt>
      <trkpt lat="45.35116" lon="4.75061">
        <ele>169.81</ele>
        <time>2022-02-22T08:46:42Z</time>
      </trkpt>
      <trkpt lat="45.35117" lon="4.75053">
        <ele>168.85</ele>
        <time>2022-02-22T08:47:10Z</time>
      </trkpt>
      <trkpt lat="45.35119" lon="4.75039">
        <ele>169.33</ele>
        <time>2022-02-22T08:47:23Z</time>
      </trkpt>
      <trkpt lat="45.35123" lon="4.7502">
        <ele>169.81</ele>
        <time>2022-02-22T08:47:35Z</time>
      </trkpt>
      <trkpt lat="45.35127" lon="4.75013">
        <ele>168.85</ele>
        <time>2022-02-22T08:47:52Z</time>
      </trkpt>
      <trkpt lat="45.3514" lon="4.75008">
        <ele>165.96</ele>
        <time>2022-02-22T09:00:47Z</time>
      </trkpt>
      <trkpt lat="45.35145" lon="4.75004">
        <ele>165.48</ele>
        <time>2022-02-22T09:00:53Z</time>
      </trkpt>
      <trkpt lat="45.35153" lon="4.74987">
        <ele>165.48</ele>
        <time>2022-02-22T09:01:07Z</time>
      </trkpt>
      <trkpt lat="45.3516" lon="4.74972">
        <ele>165</ele>
        <time>2022-02-22T09:01:14Z</time>
      </trkpt>
      <trkpt lat="45.35165" lon="4.74945">
        <ele>166.45</ele>
        <time>2022-02-22T09:01:31Z</time>
      </trkpt>
      <trkpt lat="45.35165" lon="4.74942">
        <ele>166.45</ele>
        <time>2022-02-22T09:01:33Z</time>
      </trkpt>
      <trkpt lat="45.35171" lon="4.74923">
        <ele>166.45</ele>
        <time>2022-02-22T09:01:47Z</time>
      </trkpt>
      <trkpt lat="45.3518" lon="4.74907">
        <ele>166.45</ele>
        <time>2022-02-22T09:01:58Z</time>
      </trkpt>
      <trkpt lat="45.35193" lon="4.74881">
        <ele>165.96</ele>
        <time>2022-02-22T09:02:15Z</time>
      </trkpt>
      <trkpt lat="45.35196" lon="4.74876">
        <ele>166.45</ele>
        <time>2022-02-22T09:02:18Z</time>
      </trkpt>
      <trkpt lat="45.35195" lon="4.7485">
        <ele>166.45</ele>
        <time>2022-02-22T09:02:35Z</time>
      </trkpt>
      <trkpt lat="45.35206" lon="4.74832">
        <ele>167.41</ele>
        <time>2022-02-22T09:02:50Z</time>
      </trkpt>
      <trkpt lat="45.35216" lon="4.74819">
        <ele>166.93</ele>
        <time>2022-02-22T09:03:00Z</time>
      </trkpt>
      <trkpt lat="45.35222" lon="4.74798">
        <ele>166.93</ele>
        <time>2022-02-22T09:03:13Z</time>
      </trkpt>
      <trkpt lat="45.35219" lon="4.74774">
        <ele>166.45</ele>
        <time>2022-02-22T09:03:27Z</time>
      </trkpt>
      <trkpt lat="45.35215" lon="4.74753">
        <ele>165.48</ele>
        <time>2022-02-22T09:03:42Z</time>
      </trkpt>
      <trkpt lat="45.35202" lon="4.74736">
        <ele>165</ele>
        <time>2022-02-22T09:03:59Z</time>
      </trkpt>
      <trkpt lat="45.35198" lon="4.74725">
        <ele>164.04</ele>
        <time>2022-02-22T09:04:07Z</time>
      </trkpt>
      <trkpt lat="45.35196" lon="4.74717">
        <ele>164.04</ele>
        <time>2022-02-22T09:04:12Z</time>
      </trkpt>
      <trkpt lat="45.35197" lon="4.74706">
        <ele>163.08</ele>
        <time>2022-02-22T09:04:19Z</time>
      </trkpt>
      <trkpt lat="45.35205" lon="4.74683">
        <ele>162.6</ele>
        <time>2022-02-22T09:04:34Z</time>
      </trkpt>
      <trkpt lat="45.35218" lon="4.74658">
        <ele>162.12</ele>
        <time>2022-02-22T09:04:52Z</time>
      </trkpt>
      <trkpt lat="45.35224" lon="4.74644">
        <ele>162.6</ele>
        <time>2022-02-22T09:05:03Z</time>
      </trkpt>
      <trkpt lat="45.35224" lon="4.74643">
        <ele>162.12</ele>
        <time>2022-02-22T09:05:28Z</time>
      </trkpt>
      <trkpt lat="45.35227" lon="4.74638">
        <ele>161.64</ele>
        <time>2022-02-22T09:05:49Z</time>
      </trkpt>
      <trkpt lat="45.35236" lon="4.74624">
        <ele>161.64</ele>
        <time>2022-02-22T09:06:03Z</time>
      </trkpt>
      <trkpt lat="45.35243" lon="4.74618">
        <ele>162.12</ele>
        <time>2022-02-22T09:06:14Z</time>
      </trkpt>
      <trkpt lat="45.35252" lon="4.74603">
        <ele>161.16</ele>
        <time>2022-02-22T09:06:30Z</time>
      </trkpt>
      <trkpt lat="45.35254" lon="4.74601">
        <ele>161.64</ele>
        <time>2022-02-22T09:06:32Z</time>
      </trkpt>
      <trkpt lat="45.35259" lon="4.74582">
        <ele>161.16</ele>
        <time>2022-02-22T09:06:46Z</time>
      </trkpt>
      <trkpt lat="45.35264" lon="4.74566">
        <ele>161.16</ele>
        <time>2022-02-22T09:07:02Z</time>
      </trkpt>
      <trkpt lat="45.35264" lon="4.74548">
        <ele>162.12</ele>
        <time>2022-02-22T09:07:16Z</time>
      </trkpt>
      <trkpt lat="45.35265" lon="4.74525">
        <ele>162.6</ele>
        <time>2022-02-22T09:07:30Z</time>
      </trkpt>
      <trkpt lat="45.35264" lon="4.74519">
        <ele>162.12</ele>
        <time>2022-02-22T09:07:34Z</time>
      </trkpt>
      <trkpt lat="45.35262" lon="4.74504">
        <ele>161.64</ele>
        <time>2022-02-22T09:07:44Z</time>
      </trkpt>
      <trkpt lat="45.35258" lon="4.74485">
        <ele>162.12</ele>
        <time>2022-02-22T09:07:58Z</time>
      </trkpt>
      <trkpt lat="45.35261" lon="4.74458">
        <ele>162.12</ele>
        <time>2022-02-22T09:08:11Z</time>
      </trkpt>
      <trkpt lat="45.35266" lon="4.74444">
        <ele>162.6</ele>
        <time>2022-02-22T09:08:25Z</time>
      </trkpt>
      <trkpt lat="45.35265" lon="4.74423">
        <ele>164.04</ele>
        <time>2022-02-22T09:08:39Z</time>
      </trkpt>
      <trkpt lat="45.35266" lon="4.74403">
        <ele>165</ele>
        <time>2022-02-22T09:08:53Z</time>
      </trkpt>
      <trkpt lat="45.35275" lon="4.74385">
        <ele>166.45</ele>
        <time>2022-02-22T09:09:07Z</time>
      </trkpt>
      <trkpt lat="45.35285" lon="4.74366">
        <ele>168.85</ele>
        <time>2022-02-22T09:09:22Z</time>
      </trkpt>
      <trkpt lat="45.35292" lon="4.74347">
        <ele>169.33</ele>
        <time>2022-02-22T09:09:35Z</time>
      </trkpt>
      <trkpt lat="45.35298" lon="4.74331">
        <ele>170.29</ele>
        <time>2022-02-22T09:09:49Z</time>
      </trkpt>
      <trkpt lat="45.35304" lon="4.74311">
        <ele>170.77</ele>
        <time>2022-02-22T09:10:03Z</time>
      </trkpt>
      <trkpt lat="45.35308" lon="4.74296">
        <ele>171.73</ele>
        <time>2022-02-22T09:10:12Z</time>
      </trkpt>
      <trkpt lat="45.35303" lon="4.74277">
        <ele>171.73</ele>
        <time>2022-02-22T09:10:25Z</time>
      </trkpt>
      <trkpt lat="45.35301" lon="4.7427">
        <ele>172.21</ele>
        <time>2022-02-22T09:10:30Z</time>
      </trkpt>
      <trkpt lat="45.353" lon="4.74268">
        <ele>172.69</ele>
        <time>2022-02-22T09:10:32Z</time>
      </trkpt>
      <trkpt lat="45.35298" lon="4.7426">
        <ele>172.69</ele>
        <time>2022-02-22T09:10:37Z</time>
      </trkpt>
      <trkpt lat="45.353" lon="4.74255">
        <ele>172.69</ele>
        <time>2022-02-22T09:10:40Z</time>
      </trkpt>
      <trkpt lat="45.353" lon="4.74249">
        <ele>173.17</ele>
        <time>2022-02-22T09:10:44Z</time>
      </trkpt>
      <trkpt lat="45.35296" lon="4.74236">
        <ele>173.66</ele>
        <time>2022-02-22T09:10:56Z</time>
      </trkpt>
      <trkpt lat="45.35295" lon="4.74217">
        <ele>173.66</ele>
        <time>2022-02-22T09:11:08Z</time>
      </trkpt>
      <trkpt lat="45.35314" lon="4.74195">
        <ele>171.73</ele>
        <time>2022-02-22T09:11:20Z</time>
      </trkpt>
      <trkpt lat="45.35329" lon="4.74173">
        <ele>171.25</ele>
        <time>2022-02-22T09:11:35Z</time>
      </trkpt>
      <trkpt lat="45.35341" lon="4.74153">
        <ele>171.73</ele>
        <time>2022-02-22T09:11:48Z</time>
      </trkpt>
      <trkpt lat="45.35344" lon="4.74148">
        <ele>171.25</ele>
        <time>2022-02-22T09:11:53Z</time>
      </trkpt>
      <trkpt lat="45.3536" lon="4.74129">
        <ele>170.77</ele>
        <time>2022-02-22T09:12:06Z</time>
      </trkpt>
      <trkpt lat="45.35364" lon="4.74121">
        <ele>171.73</ele>
        <time>2022-02-22T09:12:12Z</time>
      </trkpt>
      <trkpt lat="45.35381" lon="4.74095">
        <ele>171.25</ele>
        <time>2022-02-22T09:12:28Z</time>
      </trkpt>
      <trkpt lat="45.35396" lon="4.74078">
        <ele>171.25</ele>
        <time>2022-02-22T09:12:41Z</time>
      </trkpt>
      <trkpt lat="45.35398" lon="4.74071">
        <ele>171.73</ele>
        <time>2022-02-22T09:12:45Z</time>
      </trkpt>
      <trkpt lat="45.35403" lon="4.74048">
        <ele>172.21</ele>
        <time>2022-02-22T09:12:58Z</time>
      </trkpt>
      <trkpt lat="45.35403" lon="4.74045">
        <ele>173.17</ele>
        <time>2022-02-22T09:13:10Z</time>
      </trkpt>
      <trkpt lat="45.35406" lon="4.74041">
        <ele>173.17</ele>
        <time>2022-02-22T09:13:15Z</time>
      </trkpt>
      <trkpt lat="45.35405" lon="4.74034">
        <ele>173.17</ele>
        <time>2022-02-22T09:13:24Z</time>
      </trkpt>
      <trkpt lat="45.35403" lon="4.74017">
        <ele>173.17</ele>
        <time>2022-02-22T09:13:36Z</time>
      </trkpt>
      <trkpt lat="45.35397" lon="4.74">
        <ele>173.66</ele>
        <time>2022-02-22T09:13:47Z</time>
      </trkpt>
      <trkpt lat="45.35388" lon="4.73983">
        <ele>173.66</ele>
        <time>2022-02-22T09:13:57Z</time>
      </trkpt>
      <trkpt lat="45.35386" lon="4.73971">
        <ele>173.66</ele>
        <time>2022-02-22T09:14:08Z</time>
      </trkpt>
      <trkpt lat="45.35382" lon="4.73957">
        <ele>172.21</ele>
        <time>2022-02-22T09:14:20Z</time>
      </trkpt>
      <trkpt lat="45.35372" lon="4.73941">
        <ele>173.17</ele>
        <time>2022-02-22T09:14:35Z</time>
      </trkpt>
      <trkpt lat="45.35363" lon="4.73927">
        <ele>174.62</ele>
        <time>2022-02-22T09:14:46Z</time>
      </trkpt>
      <trkpt lat="45.35357" lon="4.73913">
        <ele>175.1</ele>
        <time>2022-02-22T09:14:58Z</time>
      </trkpt>
      <trkpt lat="45.35348" lon="4.73895">
        <ele>176.06</ele>
        <time>2022-02-22T09:15:09Z</time>
      </trkpt>
      <trkpt lat="45.3534" lon="4.73875">
        <ele>176.54</ele>
        <time>2022-02-22T09:15:23Z</time>
      </trkpt>
      <trkpt lat="45.35331" lon="4.73852">
        <ele>177.98</ele>
        <time>2022-02-22T09:15:38Z</time>
      </trkpt>
      <trkpt lat="45.35324" lon="4.73832">
        <ele>178.94</ele>
        <time>2022-02-22T09:15:52Z</time>
      </trkpt>
      <trkpt lat="45.35318" lon="4.73823">
        <ele>179.9</ele>
        <time>2022-02-22T09:16:08Z</time>
      </trkpt>
      <trkpt lat="45.35316" lon="4.73823">
        <ele>179.9</ele>
        <time>2022-02-22T09:16:31Z</time>
      </trkpt>
      <trkpt lat="45.35315" lon="4.7381">
        <ele>180.38</ele>
        <time>2022-02-22T09:16:48Z</time>
      </trkpt>
      <trkpt lat="45.35312" lon="4.73797">
        <ele>181.35</ele>
        <time>2022-02-22T09:17:00Z</time>
      </trkpt>
      <trkpt lat="45.35305" lon="4.73784">
        <ele>182.31</ele>
        <time>2022-02-22T09:17:10Z</time>
      </trkpt>
      <trkpt lat="45.35293" lon="4.73762">
        <ele>184.23</ele>
        <time>2022-02-22T09:17:26Z</time>
      </trkpt>
      <trkpt lat="45.35289" lon="4.73741">
        <ele>184.71</ele>
        <time>2022-02-22T09:17:39Z</time>
      </trkpt>
      <trkpt lat="45.3529" lon="4.7372">
        <ele>185.67</ele>
        <time>2022-02-22T09:17:52Z</time>
      </trkpt>
      <trkpt lat="45.35284" lon="4.737">
        <ele>187.11</ele>
        <time>2022-02-22T09:18:06Z</time>
      </trkpt>
      <trkpt lat="45.35279" lon="4.73682">
        <ele>190</ele>
        <time>2022-02-22T09:18:20Z</time>
      </trkpt>
      <trkpt lat="45.35268" lon="4.73667">
        <ele>190.96</ele>
        <time>2022-02-22T09:18:35Z</time>
      </trkpt>
      <trkpt lat="45.3526" lon="4.73657">
        <ele>190.48</ele>
        <time>2022-02-22T09:18:48Z</time>
      </trkpt>
      <trkpt lat="45.35259" lon="4.73654">
        <ele>190</ele>
        <time>2022-02-22T09:18:56Z</time>
      </trkpt>
      <trkpt lat="45.35252" lon="4.73638">
        <ele>187.59</ele>
        <time>2022-02-22T09:19:09Z</time>
      </trkpt>
      <trkpt lat="45.35246" lon="4.73619">
        <ele>185.19</ele>
        <time>2022-02-22T09:19:22Z</time>
      </trkpt>
      <trkpt lat="45.35241" lon="4.73602">
        <ele>184.23</ele>
        <time>2022-02-22T09:19:29Z</time>
      </trkpt>
      <trkpt lat="45.35231" lon="4.7359">
        <ele>182.79</ele>
        <time>2022-02-22T09:19:41Z</time>
      </trkpt>
      <trkpt lat="45.35223" lon="4.73579">
        <ele>181.83</ele>
        <time>2022-02-22T09:19:56Z</time>
      </trkpt>
      <trkpt lat="45.35221" lon="4.73582">
        <ele>182.79</ele>
        <time>2022-02-22T09:20:09Z</time>
      </trkpt>
      <trkpt lat="45.35231" lon="4.73595">
        <ele>182.79</ele>
        <time>2022-02-22T09:20:29Z</time>
      </trkpt>
      <trkpt lat="45.3522" lon="4.73581">
        <ele>182.79</ele>
        <time>2022-02-22T09:20:49Z</time>
      </trkpt>
      <trkpt lat="45.35212" lon="4.73578">
        <ele>183.27</ele>
        <time>2022-02-22T09:21:10Z</time>
      </trkpt>
      <trkpt lat="45.35225" lon="4.73586">
        <ele>183.27</ele>
        <time>2022-02-22T09:21:38Z</time>
      </trkpt>
      <trkpt lat="45.35225" lon="4.73576">
        <ele>183.27</ele>
        <time>2022-02-22T09:21:58Z</time>
      </trkpt>
      <trkpt lat="45.35219" lon="4.7358">
        <ele>184.23</ele>
        <time>2022-02-22T09:22:11Z</time>
      </trkpt>
      <trkpt lat="45.35214" lon="4.73575">
        <ele>187.11</ele>
        <time>2022-02-22T09:22:24Z</time>
      </trkpt>
      <trkpt lat="45.35213" lon="4.73564">
        <ele>190.48</ele>
        <time>2022-02-22T09:22:38Z</time>
      </trkpt>
      <trkpt lat="45.3521" lon="4.73552">
        <ele>193.36</ele>
        <time>2022-02-22T09:22:53Z</time>
      </trkpt>
      <trkpt lat="45.35206" lon="4.73544">
        <ele>196.73</ele>
        <time>2022-02-22T09:23:06Z</time>
      </trkpt>
      <trkpt lat="45.352" lon="4.7353">
        <ele>200.09</ele>
        <time>2022-02-22T09:23:22Z</time>
      </trkpt>
      <trkpt lat="45.35192" lon="4.73522">
        <ele>202.98</ele>
        <time>2022-02-22T09:23:37Z</time>
      </trkpt>
      <trkpt lat="45.35189" lon="4.73506">
        <ele>205.86</ele>
        <time>2022-02-22T09:23:54Z</time>
      </trkpt>
      <trkpt lat="45.35183" lon="4.73494">
        <ele>209.22</ele>
        <time>2022-02-22T09:24:09Z</time>
      </trkpt>
      <trkpt lat="45.35178" lon="4.73477">
        <ele>212.59</ele>
        <time>2022-02-22T09:24:25Z</time>
      </trkpt>
      <trkpt lat="45.35173" lon="4.7346">
        <ele>215.47</ele>
        <time>2022-02-22T09:24:40Z</time>
      </trkpt>
      <trkpt lat="45.35166" lon="4.73448">
        <ele>216.91</ele>
        <time>2022-02-22T09:24:53Z</time>
      </trkpt>
      <trkpt lat="45.35159" lon="4.73435">
        <ele>217.88</ele>
        <time>2022-02-22T09:25:06Z</time>
      </trkpt>
      <trkpt lat="45.35152" lon="4.73423">
        <ele>220.28</ele>
        <time>2022-02-22T09:25:19Z</time>
      </trkpt>
      <trkpt lat="45.35148" lon="4.7341">
        <ele>220.76</ele>
        <time>2022-02-22T09:25:32Z</time>
      </trkpt>
      <trkpt lat="45.3514" lon="4.73402">
        <ele>221.24</ele>
        <time>2022-02-22T09:26:01Z</time>
      </trkpt>
      <trkpt lat="45.35139" lon="4.73392">
        <ele>222.68</ele>
        <time>2022-02-22T09:26:20Z</time>
      </trkpt>
      <trkpt lat="45.35137" lon="4.73379">
        <ele>224.12</ele>
        <time>2022-02-22T09:26:34Z</time>
      </trkpt>
      <trkpt lat="45.35132" lon="4.73359">
        <ele>226.05</ele>
        <time>2022-02-22T09:26:51Z</time>
      </trkpt>
      <trkpt lat="45.35129" lon="4.73345">
        <ele>228.45</ele>
        <time>2022-02-22T09:27:04Z</time>
      </trkpt>
      <trkpt lat="45.3512" lon="4.73322">
        <ele>231.33</ele>
        <time>2022-02-22T09:27:21Z</time>
      </trkpt>
      <trkpt lat="45.35114" lon="4.73312">
        <ele>233.26</ele>
        <time>2022-02-22T09:27:36Z</time>
      </trkpt>
      <trkpt lat="45.35102" lon="4.73297">
        <ele>236.14</ele>
        <time>2022-02-22T09:27:54Z</time>
      </trkpt>
      <trkpt lat="45.35096" lon="4.73285">
        <ele>239.51</ele>
        <time>2022-02-22T09:28:09Z</time>
      </trkpt>
      <trkpt lat="45.3509" lon="4.73268">
        <ele>241.43</ele>
        <time>2022-02-22T09:28:25Z</time>
      </trkpt>
      <trkpt lat="45.35087" lon="4.73255">
        <ele>243.35</ele>
        <time>2022-02-22T09:28:42Z</time>
      </trkpt>
      <trkpt lat="45.35083" lon="4.73239">
        <ele>246.72</ele>
        <time>2022-02-22T09:28:55Z</time>
      </trkpt>
      <trkpt lat="45.35078" lon="4.73224">
        <ele>248.64</ele>
        <time>2022-02-22T09:29:10Z</time>
      </trkpt>
      <trkpt lat="45.35074" lon="4.73211">
        <ele>250.56</ele>
        <time>2022-02-22T09:29:29Z</time>
      </trkpt>
      <trkpt lat="45.35066" lon="4.73197">
        <ele>253.44</ele>
        <time>2022-02-22T09:29:45Z</time>
      </trkpt>
      <trkpt lat="45.35069" lon="4.73188">
        <ele>256.33</ele>
        <time>2022-02-22T09:30:03Z</time>
      </trkpt>
      <trkpt lat="45.35079" lon="4.73197">
        <ele>257.29</ele>
        <time>2022-02-22T09:30:19Z</time>
      </trkpt>
      <trkpt lat="45.35088" lon="4.73205">
        <ele>258.73</ele>
        <time>2022-02-22T09:30:32Z</time>
      </trkpt>
      <trkpt lat="45.35101" lon="4.73217">
        <ele>261.14</ele>
        <time>2022-02-22T09:30:48Z</time>
      </trkpt>
      <trkpt lat="45.35114" lon="4.73235">
        <ele>261.62</ele>
        <time>2022-02-22T09:31:02Z</time>
      </trkpt>
      <trkpt lat="45.35125" lon="4.73249">
        <ele>261.14</ele>
        <time>2022-02-22T09:31:19Z</time>
      </trkpt>
      <trkpt lat="45.35135" lon="4.73267">
        <ele>263.06</ele>
        <time>2022-02-22T09:31:34Z</time>
      </trkpt>
      <trkpt lat="45.35146" lon="4.73275">
        <ele>264.98</ele>
        <time>2022-02-22T09:31:50Z</time>
      </trkpt>
      <trkpt lat="45.35147" lon="4.73266">
        <ele>267.86</ele>
        <time>2022-02-22T09:32:04Z</time>
      </trkpt>
      <trkpt lat="45.3514" lon="4.73254">
        <ele>269.79</ele>
        <time>2022-02-22T09:32:16Z</time>
      </trkpt>
      <trkpt lat="45.35132" lon="4.73239">
        <ele>270.75</ele>
        <time>2022-02-22T09:32:32Z</time>
      </trkpt>
      <trkpt lat="45.35128" lon="4.73223">
        <ele>273.63</ele>
        <time>2022-02-22T09:32:45Z</time>
      </trkpt>
      <trkpt lat="45.35117" lon="4.73205">
        <ele>275.56</ele>
        <time>2022-02-22T09:33:02Z</time>
      </trkpt>
      <trkpt lat="45.35113" lon="4.73191">
        <ele>277.48</ele>
        <time>2022-02-22T09:33:15Z</time>
      </trkpt>
      <trkpt lat="45.3511" lon="4.73182">
        <ele>278.92</ele>
        <time>2022-02-22T09:33:22Z</time>
      </trkpt>
      <trkpt lat="45.35102" lon="4.7316">
        <ele>279.88</ele>
        <time>2022-02-22T09:33:39Z</time>
      </trkpt>
      <trkpt lat="45.35093" lon="4.73144">
        <ele>281.8</ele>
        <time>2022-02-22T09:33:54Z</time>
      </trkpt>
      <trkpt lat="45.35084" lon="4.73134">
        <ele>283.25</ele>
        <time>2022-02-22T09:34:09Z</time>
      </trkpt>
      <trkpt lat="45.35074" lon="4.73127">
        <ele>286.13</ele>
        <time>2022-02-22T09:34:23Z</time>
      </trkpt>
      <trkpt lat="45.3507" lon="4.7312">
        <ele>286.61</ele>
        <time>2022-02-22T09:34:40Z</time>
      </trkpt>
      <trkpt lat="45.35067" lon="4.73121">
        <ele>286.61</ele>
        <time>2022-02-22T09:35:01Z</time>
      </trkpt>
      <trkpt lat="45.35064" lon="4.73116">
        <ele>287.09</ele>
        <time>2022-02-22T09:35:19Z</time>
      </trkpt>
      <trkpt lat="45.35061" lon="4.73103">
        <ele>289.49</ele>
        <time>2022-02-22T09:35:32Z</time>
      </trkpt>
      <trkpt lat="45.35052" lon="4.73088">
        <ele>291.42</ele>
        <time>2022-02-22T09:35:48Z</time>
      </trkpt>
      <trkpt lat="45.35043" lon="4.73077">
        <ele>294.3</ele>
        <time>2022-02-22T09:36:03Z</time>
      </trkpt>
      <trkpt lat="45.35038" lon="4.73065">
        <ele>296.22</ele>
        <time>2022-02-22T09:36:17Z</time>
      </trkpt>
      <trkpt lat="45.35033" lon="4.73046">
        <ele>299.11</ele>
        <time>2022-02-22T09:36:33Z</time>
      </trkpt>
      <trkpt lat="45.35033" lon="4.7303">
        <ele>301.99</ele>
        <time>2022-02-22T09:36:48Z</time>
      </trkpt>
      <trkpt lat="45.35033" lon="4.73009">
        <ele>303.91</ele>
        <time>2022-02-22T09:37:02Z</time>
      </trkpt>
      <trkpt lat="45.35032" lon="4.72989">
        <ele>303.43</ele>
        <time>2022-02-22T09:37:17Z</time>
      </trkpt>
      <trkpt lat="45.35031" lon="4.72973">
        <ele>303.91</ele>
        <time>2022-02-22T09:37:30Z</time>
      </trkpt>
      <trkpt lat="45.35028" lon="4.72948">
        <ele>304.39</ele>
        <time>2022-02-22T09:37:46Z</time>
      </trkpt>
      <trkpt lat="45.35026" lon="4.72925">
        <ele>305.36</ele>
        <time>2022-02-22T09:38:02Z</time>
      </trkpt>
      <trkpt lat="45.35024" lon="4.72901">
        <ele>306.32</ele>
        <time>2022-02-22T09:38:17Z</time>
      </trkpt>
      <trkpt lat="45.35023" lon="4.72878">
        <ele>307.28</ele>
        <time>2022-02-22T09:38:32Z</time>
      </trkpt>
      <trkpt lat="45.35022" lon="4.7286">
        <ele>309.68</ele>
        <time>2022-02-22T09:38:47Z</time>
      </trkpt>
      <trkpt lat="45.35023" lon="4.72842">
        <ele>312.57</ele>
        <time>2022-02-22T09:39:01Z</time>
      </trkpt>
      <trkpt lat="45.35029" lon="4.72826">
        <ele>315.45</ele>
        <time>2022-02-22T09:39:17Z</time>
      </trkpt>
      <trkpt lat="45.3503" lon="4.72823">
        <ele>316.89</ele>
        <time>2022-02-22T09:39:34Z</time>
      </trkpt>
      <trkpt lat="45.35034" lon="4.72811">
        <ele>318.81</ele>
        <time>2022-02-22T09:39:49Z</time>
      </trkpt>
      <trkpt lat="45.35038" lon="4.72791">
        <ele>321.7</ele>
        <time>2022-02-22T09:40:04Z</time>
      </trkpt>
      <trkpt lat="45.35041" lon="4.72773">
        <ele>323.14</ele>
        <time>2022-02-22T09:40:17Z</time>
      </trkpt>
      <trkpt lat="45.35043" lon="4.72767">
        <ele>323.62</ele>
        <time>2022-02-22T09:40:33Z</time>
      </trkpt>
      <trkpt lat="45.35042" lon="4.72764">
        <ele>323.62</ele>
        <time>2022-02-22T09:40:53Z</time>
      </trkpt>
      <trkpt lat="45.35044" lon="4.7276">
        <ele>323.14</ele>
        <time>2022-02-22T09:41:15Z</time>
      </trkpt>
      <trkpt lat="45.35051" lon="4.72738">
        <ele>324.58</ele>
        <time>2022-02-22T09:41:32Z</time>
      </trkpt>
      <trkpt lat="45.35052" lon="4.72736">
        <ele>325.06</ele>
        <time>2022-02-22T09:41:33Z</time>
      </trkpt>
      <trkpt lat="45.35057" lon="4.72714">
        <ele>326.5</ele>
        <time>2022-02-22T09:41:49Z</time>
      </trkpt>
      <trkpt lat="45.35059" lon="4.72709">
        <ele>326.5</ele>
        <time>2022-02-22T09:41:52Z</time>
      </trkpt>
      <trkpt lat="45.35065" lon="4.7269">
        <ele>327.47</ele>
        <time>2022-02-22T09:42:06Z</time>
      </trkpt>
      <trkpt lat="45.35066" lon="4.72689">
        <ele>327.47</ele>
        <time>2022-02-22T09:42:07Z</time>
      </trkpt>
      <trkpt lat="45.35069" lon="4.72674">
        <ele>327.95</ele>
        <time>2022-02-22T09:42:21Z</time>
      </trkpt>
      <trkpt lat="45.35072" lon="4.72669">
        <ele>329.87</ele>
        <time>2022-02-22T09:42:26Z</time>
      </trkpt>
      <trkpt lat="45.35073" lon="4.72668">
        <ele>329.87</ele>
        <time>2022-02-22T09:42:27Z</time>
      </trkpt>
      <trkpt lat="45.35085" lon="4.72646">
        <ele>328.91</ele>
        <time>2022-02-22T09:42:44Z</time>
      </trkpt>
      <trkpt lat="45.35097" lon="4.72627">
        <ele>330.35</ele>
        <time>2022-02-22T09:43:00Z</time>
      </trkpt>
      <trkpt lat="45.35101" lon="4.72621">
        <ele>330.83</ele>
        <time>2022-02-22T09:43:05Z</time>
      </trkpt>
      <trkpt lat="45.35109" lon="4.72601">
        <ele>331.79</ele>
        <time>2022-02-22T09:43:19Z</time>
      </trkpt>
      <trkpt lat="45.35121" lon="4.72585">
        <ele>331.79</ele>
        <time>2022-02-22T09:43:34Z</time>
      </trkpt>
      <trkpt lat="45.35123" lon="4.72581">
        <ele>333.23</ele>
        <time>2022-02-22T09:43:37Z</time>
      </trkpt>
      <trkpt lat="45.35126" lon="4.72576">
        <ele>332.75</ele>
        <time>2022-02-22T09:43:41Z</time>
      </trkpt>
      <trkpt lat="45.35131" lon="4.72553">
        <ele>334.68</ele>
        <time>2022-02-22T09:43:56Z</time>
      </trkpt>
      <trkpt lat="45.35138" lon="4.7253">
        <ele>334.68</ele>
        <time>2022-02-22T09:44:11Z</time>
      </trkpt>
      <trkpt lat="45.35146" lon="4.7251">
        <ele>334.68</ele>
        <time>2022-02-22T09:44:25Z</time>
      </trkpt>
      <trkpt lat="45.35149" lon="4.72488">
        <ele>336.12</ele>
        <time>2022-02-22T09:44:39Z</time>
      </trkpt>
      <trkpt lat="45.35151" lon="4.72482">
        <ele>336.6</ele>
        <time>2022-02-22T09:44:43Z</time>
      </trkpt>
      <trkpt lat="45.35153" lon="4.72459">
        <ele>336.6</ele>
        <time>2022-02-22T09:44:57Z</time>
      </trkpt>
      <trkpt lat="45.35154" lon="4.72436">
        <ele>337.08</ele>
        <time>2022-02-22T09:45:11Z</time>
      </trkpt>
      <trkpt lat="45.35149" lon="4.72415">
        <ele>337.56</ele>
        <time>2022-02-22T09:45:24Z</time>
      </trkpt>
      <trkpt lat="45.35138" lon="4.72393">
        <ele>339</ele>
        <time>2022-02-22T09:45:42Z</time>
      </trkpt>
      <trkpt lat="45.35132" lon="4.72367">
        <ele>341.41</ele>
        <time>2022-02-22T09:45:59Z</time>
      </trkpt>
      <trkpt lat="45.35126" lon="4.7234">
        <ele>340.92</ele>
        <time>2022-02-22T09:46:15Z</time>
      </trkpt>
      <trkpt lat="45.35119" lon="4.72315">
        <ele>341.41</ele>
        <time>2022-02-22T09:46:31Z</time>
      </trkpt>
      <trkpt lat="45.35117" lon="4.72302">
        <ele>341.89</ele>
        <time>2022-02-22T09:46:39Z</time>
      </trkpt>
      <trkpt lat="45.35113" lon="4.72289">
        <ele>342.37</ele>
        <time>2022-02-22T09:46:48Z</time>
      </trkpt>
      <trkpt lat="45.35107" lon="4.72259">
        <ele>343.81</ele>
        <time>2022-02-22T09:47:07Z</time>
      </trkpt>
      <trkpt lat="45.35107" lon="4.72236">
        <ele>344.77</ele>
        <time>2022-02-22T09:47:21Z</time>
      </trkpt>
      <trkpt lat="45.35106" lon="4.72227">
        <ele>345.25</ele>
        <time>2022-02-22T09:47:27Z</time>
      </trkpt>
      <trkpt lat="45.35104" lon="4.72201">
        <ele>346.21</ele>
        <time>2022-02-22T09:47:45Z</time>
      </trkpt>
      <trkpt lat="45.35099" lon="4.72181">
        <ele>348.13</ele>
        <time>2022-02-22T09:48:01Z</time>
      </trkpt>
      <trkpt lat="45.35097" lon="4.7217">
        <ele>349.1</ele>
        <time>2022-02-22T09:48:08Z</time>
      </trkpt>
      <trkpt lat="45.35088" lon="4.72147">
        <ele>350.06</ele>
        <time>2022-02-22T09:48:24Z</time>
      </trkpt>
      <trkpt lat="45.35079" lon="4.72131">
        <ele>351.5</ele>
        <time>2022-02-22T09:48:36Z</time>
      </trkpt>
      <trkpt lat="45.35066" lon="4.72119">
        <ele>351.02</ele>
        <time>2022-02-22T09:48:51Z</time>
      </trkpt>
      <trkpt lat="45.3505" lon="4.72107">
        <ele>352.46</ele>
        <time>2022-02-22T09:49:08Z</time>
      </trkpt>
      <trkpt lat="45.35034" lon="4.7209">
        <ele>352.46</ele>
        <time>2022-02-22T09:49:25Z</time>
      </trkpt>
      <trkpt lat="45.35016" lon="4.72076">
        <ele>352.94</ele>
        <time>2022-02-22T09:49:41Z</time>
      </trkpt>
      <trkpt lat="45.34999" lon="4.72072">
        <ele>353.9</ele>
        <time>2022-02-22T09:49:57Z</time>
      </trkpt>
      <trkpt lat="45.3498" lon="4.72073">
        <ele>354.38</ele>
        <time>2022-02-22T09:50:14Z</time>
      </trkpt>
      <trkpt lat="45.34979" lon="4.72073">
        <ele>354.86</ele>
        <time>2022-02-22T09:50:15Z</time>
      </trkpt>
      <trkpt lat="45.34973" lon="4.72072">
        <ele>354.38</ele>
        <time>2022-02-22T09:50:20Z</time>
      </trkpt>
      <trkpt lat="45.34958" lon="4.72067">
        <ele>354.86</ele>
        <time>2022-02-22T09:50:35Z</time>
      </trkpt>
      <trkpt lat="45.34954" lon="4.72064">
        <ele>355.34</ele>
        <time>2022-02-22T09:51:12Z</time>
      </trkpt>
      <trkpt lat="45.34948" lon="4.72056">
        <ele>356.31</ele>
        <time>2022-02-22T09:51:25Z</time>
      </trkpt>
      <trkpt lat="45.34947" lon="4.7205">
        <ele>355.34</ele>
        <time>2022-02-22T09:51:33Z</time>
      </trkpt>
      <trkpt lat="45.34944" lon="4.72046">
        <ele>354.86</ele>
        <time>2022-02-22T09:51:46Z</time>
      </trkpt>
      <trkpt lat="45.34937" lon="4.72047">
        <ele>356.79</ele>
        <time>2022-02-22T09:51:55Z</time>
      </trkpt>
      <trkpt lat="45.34931" lon="4.72048">
        <ele>355.83</ele>
        <time>2022-02-22T09:52:01Z</time>
      </trkpt>
      <trkpt lat="45.34909" lon="4.72046">
        <ele>355.83</ele>
        <time>2022-02-22T09:52:20Z</time>
      </trkpt>
      <trkpt lat="45.34902" lon="4.72048">
        <ele>356.31</ele>
        <time>2022-02-22T09:52:27Z</time>
      </trkpt>
      <trkpt lat="45.349" lon="4.72049">
        <ele>355.83</ele>
        <time>2022-02-22T09:52:29Z</time>
      </trkpt>
      <trkpt lat="45.34875" lon="4.72055">
        <ele>355.83</ele>
        <time>2022-02-22T09:52:48Z</time>
      </trkpt>
      <trkpt lat="45.34852" lon="4.7206">
        <ele>355.83</ele>
        <time>2022-02-22T09:53:05Z</time>
      </trkpt>
      <trkpt lat="45.34832" lon="4.72067">
        <ele>356.31</ele>
        <time>2022-02-22T09:53:21Z</time>
      </trkpt>
      <trkpt lat="45.34818" lon="4.72076">
        <ele>355.83</ele>
        <time>2022-02-22T09:53:35Z</time>
      </trkpt>
      <trkpt lat="45.34815" lon="4.72076">
        <ele>356.79</ele>
        <time>2022-02-22T09:53:42Z</time>
      </trkpt>
      <trkpt lat="45.34819" lon="4.72072">
        <ele>355.34</ele>
        <time>2022-02-22T09:53:45Z</time>
      </trkpt>
      <trkpt lat="45.34818" lon="4.7207">
        <ele>356.31</ele>
        <time>2022-02-22T09:53:57Z</time>
      </trkpt>
      <trkpt lat="45.34818" lon="4.72076">
        <ele>355.83</ele>
        <time>2022-02-22T09:54:15Z</time>
      </trkpt>
      <trkpt lat="45.34803" lon="4.72082">
        <ele>357.27</ele>
        <time>2022-02-22T09:54:30Z</time>
      </trkpt>
      <trkpt lat="45.34789" lon="4.72089">
        <ele>358.71</ele>
        <time>2022-02-22T09:54:44Z</time>
      </trkpt>
      <trkpt lat="45.34772" lon="4.72099">
        <ele>358.23</ele>
        <time>2022-02-22T09:55:00Z</time>
      </trkpt>
      <trkpt lat="45.34765" lon="4.72104">
        <ele>359.19</ele>
        <time>2022-02-22T09:55:07Z</time>
      </trkpt>
      <trkpt lat="45.34756" lon="4.7212">
        <ele>359.19</ele>
        <time>2022-02-22T09:55:20Z</time>
      </trkpt>
      <trkpt lat="45.3476" lon="4.72152">
        <ele>356.79</ele>
        <time>2022-02-22T09:55:39Z</time>
      </trkpt>
      <trkpt lat="45.3476" lon="4.72159">
        <ele>356.31</ele>
        <time>2022-02-22T09:55:43Z</time>
      </trkpt>
      <trkpt lat="45.34761" lon="4.72186">
        <ele>357.75</ele>
        <time>2022-02-22T09:55:58Z</time>
      </trkpt>
      <trkpt lat="45.3476" lon="4.72188">
        <ele>357.75</ele>
        <time>2022-02-22T09:55:59Z</time>
      </trkpt>
      <trkpt lat="45.34757" lon="4.72208">
        <ele>356.79</ele>
        <time>2022-02-22T09:56:12Z</time>
      </trkpt>
      <trkpt lat="45.34752" lon="4.72216">
        <ele>356.79</ele>
        <time>2022-02-22T09:56:18Z</time>
      </trkpt>
      <trkpt lat="45.34742" lon="4.72234">
        <ele>355.34</ele>
        <time>2022-02-22T09:56:37Z</time>
      </trkpt>
      <trkpt lat="45.34744" lon="4.72231">
        <ele>356.31</ele>
        <time>2022-02-22T09:56:48Z</time>
      </trkpt>
      <trkpt lat="45.34744" lon="4.72236">
        <ele>355.34</ele>
        <time>2022-02-22T09:57:07Z</time>
      </trkpt>
      <trkpt lat="45.34743" lon="4.72245">
        <ele>354.86</ele>
        <time>2022-02-22T09:57:17Z</time>
      </trkpt>
      <trkpt lat="45.34741" lon="4.72251">
        <ele>354.86</ele>
        <time>2022-02-22T09:57:23Z</time>
      </trkpt>
      <trkpt lat="45.3474" lon="4.72261">
        <ele>353.9</ele>
        <time>2022-02-22T09:57:29Z</time>
      </trkpt>
      <trkpt lat="45.34737" lon="4.72271">
        <ele>353.9</ele>
        <time>2022-02-22T09:57:35Z</time>
      </trkpt>
      <trkpt lat="45.34737" lon="4.72279">
        <ele>352.94</ele>
        <time>2022-02-22T09:57:40Z</time>
      </trkpt>
      <trkpt lat="45.3474" lon="4.72294">
        <ele>351.5</ele>
        <time>2022-02-22T09:57:51Z</time>
      </trkpt>
      <trkpt lat="45.3475" lon="4.72312">
        <ele>349.58</ele>
        <time>2022-02-22T09:58:05Z</time>
      </trkpt>
      <trkpt lat="45.34763" lon="4.72341">
        <ele>348.62</ele>
        <time>2022-02-22T09:58:25Z</time>
      </trkpt>
      <trkpt lat="45.34777" lon="4.72363">
        <ele>347.17</ele>
        <time>2022-02-22T09:58:42Z</time>
      </trkpt>
      <trkpt lat="45.34786" lon="4.72377">
        <ele>347.17</ele>
        <time>2022-02-22T09:58:54Z</time>
      </trkpt>
      <trkpt lat="45.3479" lon="4.72399">
        <ele>345.25</ele>
        <time>2022-02-22T09:59:10Z</time>
      </trkpt>
      <trkpt lat="45.3479" lon="4.724">
        <ele>344.29</ele>
        <time>2022-02-22T09:59:11Z</time>
      </trkpt>
      <trkpt lat="45.34789" lon="4.72407">
        <ele>343.81</ele>
        <time>2022-02-22T09:59:15Z</time>
      </trkpt>
      <trkpt lat="45.34791" lon="4.72419">
        <ele>342.85</ele>
        <time>2022-02-22T09:59:31Z</time>
      </trkpt>
      <trkpt lat="45.34791" lon="4.7242">
        <ele>341.89</ele>
        <time>2022-02-22T09:59:50Z</time>
      </trkpt>
      <trkpt lat="45.34789" lon="4.72419">
        <ele>341.89</ele>
        <time>2022-02-22T10:00:10Z</time>
      </trkpt>
      <trkpt lat="45.3479" lon="4.72427">
        <ele>340.92</ele>
        <time>2022-02-22T10:00:30Z</time>
      </trkpt>
      <trkpt lat="45.34786" lon="4.72434">
        <ele>340.44</ele>
        <time>2022-02-22T10:00:35Z</time>
      </trkpt>
      <trkpt lat="45.34773" lon="4.72442">
        <ele>340.44</ele>
        <time>2022-02-22T10:00:52Z</time>
      </trkpt>
      <trkpt lat="45.34779" lon="4.72441">
        <ele>339.96</ele>
        <time>2022-02-22T10:01:06Z</time>
      </trkpt>
      <trkpt lat="45.34781" lon="4.7244">
        <ele>340.44</ele>
        <time>2022-02-22T10:01:21Z</time>
      </trkpt>
      <trkpt lat="45.34778" lon="4.72442">
        <ele>339.96</ele>
        <time>2022-02-22T10:01:39Z</time>
      </trkpt>
      <trkpt lat="45.34777" lon="4.72446">
        <ele>339</ele>
        <time>2022-02-22T10:01:42Z</time>
      </trkpt>
      <trkpt lat="45.34778" lon="4.72467">
        <ele>337.08</ele>
        <time>2022-02-22T10:01:58Z</time>
      </trkpt>
      <trkpt lat="45.34778" lon="4.72474">
        <ele>336.6</ele>
        <time>2022-02-22T10:02:03Z</time>
      </trkpt>
      <trkpt lat="45.34778" lon="4.72501">
        <ele>334.68</ele>
        <time>2022-02-22T10:02:20Z</time>
      </trkpt>
      <trkpt lat="45.34777" lon="4.72502">
        <ele>334.2</ele>
        <time>2022-02-22T10:02:21Z</time>
      </trkpt>
      <trkpt lat="45.34767" lon="4.72519">
        <ele>331.79</ele>
        <time>2022-02-22T10:02:36Z</time>
      </trkpt>
      <trkpt lat="45.34766" lon="4.72535">
        <ele>327.95</ele>
        <time>2022-02-22T10:02:47Z</time>
      </trkpt>
      <trkpt lat="45.34762" lon="4.72551">
        <ele>326.99</ele>
        <time>2022-02-22T10:02:59Z</time>
      </trkpt>
      <trkpt lat="45.34762" lon="4.72552">
        <ele>326.99</ele>
        <time>2022-02-22T10:03:01Z</time>
      </trkpt>
      <trkpt lat="45.34763" lon="4.72557">
        <ele>326.02</ele>
        <time>2022-02-22T10:03:05Z</time>
      </trkpt>
      <trkpt lat="45.34759" lon="4.72581">
        <ele>322.66</ele>
        <time>2022-02-22T10:03:21Z</time>
      </trkpt>
      <trkpt lat="45.3476" lon="4.72599">
        <ele>320.26</ele>
        <time>2022-02-22T10:03:35Z</time>
      </trkpt>
      <trkpt lat="45.3476" lon="4.72623">
        <ele>317.37</ele>
        <time>2022-02-22T10:03:51Z</time>
      </trkpt>
      <trkpt lat="45.34753" lon="4.72637">
        <ele>314.49</ele>
        <time>2022-02-22T10:04:04Z</time>
      </trkpt>
      <trkpt lat="45.34744" lon="4.7265">
        <ele>311.6</ele>
        <time>2022-02-22T10:04:18Z</time>
      </trkpt>
      <trkpt lat="45.34737" lon="4.72659">
        <ele>310.16</ele>
        <time>2022-02-22T10:04:32Z</time>
      </trkpt>
      <trkpt lat="45.34733" lon="4.72666">
        <ele>309.2</ele>
        <time>2022-02-22T10:04:55Z</time>
      </trkpt>
      <trkpt lat="45.34728" lon="4.72676">
        <ele>306.8</ele>
        <time>2022-02-22T10:05:05Z</time>
      </trkpt>
      <trkpt lat="45.34725" lon="4.72688">
        <ele>304.39</ele>
        <time>2022-02-22T10:05:17Z</time>
      </trkpt>
      <trkpt lat="45.34722" lon="4.72687">
        <ele>303.91</ele>
        <time>2022-02-22T10:05:20Z</time>
      </trkpt>
      <trkpt lat="45.34713" lon="4.72675">
        <ele>302.95</ele>
        <time>2022-02-22T10:05:35Z</time>
      </trkpt>
      <trkpt lat="45.34711" lon="4.7268">
        <ele>302.95</ele>
        <time>2022-02-22T10:05:52Z</time>
      </trkpt>
      <trkpt lat="45.34699" lon="4.72692">
        <ele>303.43</ele>
        <time>2022-02-22T10:06:06Z</time>
      </trkpt>
      <trkpt lat="45.34693" lon="4.72705">
        <ele>303.43</ele>
        <time>2022-02-22T10:06:15Z</time>
      </trkpt>
      <trkpt lat="45.34695" lon="4.7273">
        <ele>305.36</ele>
        <time>2022-02-22T10:06:32Z</time>
      </trkpt>
      <trkpt lat="45.34699" lon="4.72752">
        <ele>307.76</ele>
        <time>2022-02-22T10:06:44Z</time>
      </trkpt>
      <trkpt lat="45.34703" lon="4.72779">
        <ele>310.64</ele>
        <time>2022-02-22T10:07:03Z</time>
      </trkpt>
      <trkpt lat="45.34703" lon="4.72805">
        <ele>313.05</ele>
        <time>2022-02-22T10:07:20Z</time>
      </trkpt>
      <trkpt lat="45.34691" lon="4.72816">
        <ele>314.97</ele>
        <time>2022-02-22T10:07:32Z</time>
      </trkpt>
      <trkpt lat="45.34688" lon="4.72817">
        <ele>315.45</ele>
        <time>2022-02-22T10:07:35Z</time>
      </trkpt>
      <trkpt lat="45.34679" lon="4.72821">
        <ele>316.41</ele>
        <time>2022-02-22T10:07:53Z</time>
      </trkpt>
      <trkpt lat="45.34679" lon="4.72826">
        <ele>316.41</ele>
        <time>2022-02-22T10:08:09Z</time>
      </trkpt>
      <trkpt lat="45.34678" lon="4.72827">
        <ele>316.41</ele>
        <time>2022-02-22T10:08:21Z</time>
      </trkpt>
      <trkpt lat="45.34673" lon="4.72824">
        <ele>316.89</ele>
        <time>2022-02-22T10:08:26Z</time>
      </trkpt>
      <trkpt lat="45.34663" lon="4.72828">
        <ele>317.37</ele>
        <time>2022-02-22T10:08:35Z</time>
      </trkpt>
      <trkpt lat="45.34661" lon="4.72842">
        <ele>319.3</ele>
        <time>2022-02-22T10:08:47Z</time>
      </trkpt>
      <trkpt lat="45.34647" lon="4.72839">
        <ele>322.18</ele>
        <time>2022-02-22T10:09:02Z</time>
      </trkpt>
      <trkpt lat="45.34643" lon="4.72837">
        <ele>323.14</ele>
        <time>2022-02-22T10:09:16Z</time>
      </trkpt>
      <trkpt lat="45.34644" lon="4.72835">
        <ele>322.66</ele>
        <time>2022-02-22T10:09:36Z</time>
      </trkpt>
      <trkpt lat="45.34643" lon="4.72836">
        <ele>323.14</ele>
        <time>2022-02-22T10:10:04Z</time>
      </trkpt>
      <trkpt lat="45.34642" lon="4.72835">
        <ele>323.14</ele>
        <time>2022-02-22T10:10:06Z</time>
      </trkpt>
    </trkseg>
  </trk>
</gpx>